<?xml version='1.0' encoding='UTF-8'?><gpx version="1.1" creator="JPX - https://github.com/jenetics/jpx" xmlns="http://www.topografix.com/GPX/1/1"><trk><trkseg><trkpt lat="43.30231237117694" lon="12.900950952654732"><ele>732.6666666666667</ele><time>2026-04-29T13:22:40Z</time></trkpt><trkpt lat="43.30222892612991" lon="12.900914167583142"><ele>735.3333333333334</ele><time>2026-04-29T13:22:43Z</time></trkpt><trkpt lat="43.30214242746869" lon="12.900913447678134"><ele>738.0</ele><time>2026-04-29T13:22:46Z</time></trkpt><trkpt lat="43.30206658888025" lon="12.900865786480521"><ele>740.6666666666666</ele><time>2026-04-29T13:22:49Z</time></trkpt><trkpt lat="43.301983047796874" lon="12.90080773466452"><ele>743.3333333333333</ele><time>2026-04-29T13:22:52Z</time></trkpt><trkpt lat="43.30191627152894" lon="12.90075112828974"><ele>746.0</ele><time>2026-04-29T13:22:55Z</time></trkpt><trkpt lat="43.301838579253314" lon="12.900685777657042"><ele>746.0</ele><time>2026-04-29T13:22:58Z</time></trkpt><trkpt lat="43.30175659087617" lon="12.900621742701686"><ele>746.0</ele><time>2026-04-29T13:23:01.001Z</time></trkpt><trkpt lat="43.3017015107322" lon="12.900574587162001"><ele>746.0</ele><time>2026-04-29T13:23:03.001Z</time></trkpt><trkpt lat="43.30164429834499" lon="12.900532050877084"><ele>746.0</ele><time>2026-04-29T13:23:05.001Z</time></trkpt><trkpt lat="43.30158794600823" lon="12.900489803092231"><ele>746.0</ele><time>2026-04-29T13:23:07.001Z</time></trkpt><trkpt lat="43.30153173284609" lon="12.900443776581964"><ele>746.0</ele><time>2026-04-29T13:23:09.001Z</time></trkpt><trkpt lat="43.30147464181153" lon="12.90039388587237"><ele>746.0</ele><time>2026-04-29T13:23:11.001Z</time></trkpt><trkpt lat="43.30141833974157" lon="12.900347895545801"><ele>746.8571428571429</ele><time>2026-04-29T13:23:13.001Z</time></trkpt><trkpt lat="43.30136015321657" lon="12.900300398593103"><ele>747.7142857142858</ele><time>2026-04-29T13:23:15.001Z</time></trkpt><trkpt lat="43.30130270859266" lon="12.900256187649331"><ele>748.5714285714286</ele><time>2026-04-29T13:23:17.001Z</time></trkpt><trkpt lat="43.301246436578054" lon="12.900209989697766"><ele>749.4285714285714</ele><time>2026-04-29T13:23:19.001Z</time></trkpt><trkpt lat="43.30118902869643" lon="12.900162757671636"><ele>750.2857142857142</ele><time>2026-04-29T13:23:21.001Z</time></trkpt><trkpt lat="43.30112953888789" lon="12.900113665570073"><ele>751.1428571428571</ele><time>2026-04-29T13:23:23.001Z</time></trkpt><trkpt lat="43.30107140894283" lon="12.900065665606911"><ele>752.0</ele><time>2026-04-29T13:23:25.001Z</time></trkpt><trkpt lat="43.30101205963123" lon="12.90001635124211"><ele>752.0</ele><time>2026-04-29T13:23:27.001Z</time></trkpt><trkpt lat="43.300950972731755" lon="12.899971634589729"><ele>752.0</ele><time>2026-04-29T13:23:29.001Z</time></trkpt><trkpt lat="43.30089257861209" lon="12.89992240499802"><ele>752.0</ele><time>2026-04-29T13:23:31Z</time></trkpt><trkpt lat="43.30083905119089" lon="12.899872084609992"><ele>752.0</ele><time>2026-04-29T13:23:33Z</time></trkpt><trkpt lat="43.3007816504045" lon="12.899826526329868"><ele>752.0</ele><time>2026-04-29T13:23:35Z</time></trkpt><trkpt lat="43.30072074349159" lon="12.89977564539636"><ele>752.0</ele><time>2026-04-29T13:23:37Z</time></trkpt><trkpt lat="43.300662931526176" lon="12.89972194156014"><ele>752.0</ele><time>2026-04-29T13:23:39Z</time></trkpt><trkpt lat="43.300605728044154" lon="12.899671218112136"><ele>748.7142857142857</ele><time>2026-04-29T13:23:41Z</time></trkpt><trkpt lat="43.300545969810095" lon="12.899621304179973"><ele>745.4285714285713</ele><time>2026-04-29T13:23:43Z</time></trkpt><trkpt lat="43.30048898022249" lon="12.899568712891044"><ele>742.1428571428571</ele><time>2026-04-29T13:23:45Z</time></trkpt><trkpt lat="43.300431276545496" lon="12.899513527545242"><ele>738.8571428571429</ele><time>2026-04-29T13:23:47Z</time></trkpt><trkpt lat="43.30037053970012" lon="12.899460140586458"><ele>735.5714285714286</ele><time>2026-04-29T13:23:49Z</time></trkpt><trkpt lat="43.30031279050609" lon="12.899406703228772"><ele>732.2857142857143</ele><time>2026-04-29T13:23:51Z</time></trkpt><trkpt lat="43.30025535439485" lon="12.89935508666163"><ele>729.0</ele><time>2026-04-29T13:23:53Z</time></trkpt><trkpt lat="43.30019925491181" lon="12.899307740075466"><ele>729.0</ele><time>2026-04-29T13:23:55Z</time></trkpt><trkpt lat="43.30014196191912" lon="12.899259445471383"><ele>729.0</ele><time>2026-04-29T13:23:57Z</time></trkpt><trkpt lat="43.30008770622632" lon="12.899207419959323"><ele>729.0</ele><time>2026-04-29T13:23:59Z</time></trkpt><trkpt lat="43.30003655938879" lon="12.899154400700597"><ele>729.0</ele><time>2026-04-29T13:24:01Z</time></trkpt><trkpt lat="43.299982908904866" lon="12.899103508235308"><ele>729.0</ele><time>2026-04-29T13:24:03Z</time></trkpt><trkpt lat="43.29990699053099" lon="12.899034373592395"><ele>729.0</ele><time>2026-04-29T13:24:06Z</time></trkpt><trkpt lat="43.29985467950717" lon="12.898983445892267"><ele>729.0</ele><time>2026-04-29T13:24:08Z</time></trkpt><trkpt lat="43.299804480218086" lon="12.898929605751725"><ele>729.1666666666666</ele><time>2026-04-29T13:24:10Z</time></trkpt><trkpt lat="43.299752213719145" lon="12.89887342016609"><ele>729.3333333333334</ele><time>2026-04-29T13:24:12Z</time></trkpt><trkpt lat="43.29970067046013" lon="12.89881743489642"><ele>729.5</ele><time>2026-04-29T13:24:14Z</time></trkpt><trkpt lat="43.29963222207629" lon="12.898743166534075"><ele>729.6666666666667</ele><time>2026-04-29T13:24:17Z</time></trkpt><trkpt lat="43.29956609731621" lon="12.898667065610772"><ele>729.8333333333334</ele><time>2026-04-29T13:24:20Z</time></trkpt><trkpt lat="43.29951611546022" lon="12.898614378156012"><ele>730.0</ele><time>2026-04-29T13:24:22Z</time></trkpt><trkpt lat="43.299453583506285" lon="12.898534639939973"><ele>730.0</ele><time>2026-04-29T13:24:25Z</time></trkpt><trkpt lat="43.299381809859064" lon="12.898451459621711"><ele>730.0</ele><time>2026-04-29T13:24:28Z</time></trkpt><trkpt lat="43.29933345921376" lon="12.898390442581164"><ele>730.0</ele><time>2026-04-29T13:24:30Z</time></trkpt><trkpt lat="43.29928561823395" lon="12.898331685495515"><ele>730.0</ele><time>2026-04-29T13:24:32Z</time></trkpt><trkpt lat="43.299217045415325" lon="12.898245123244179"><ele>730.0</ele><time>2026-04-29T13:24:35Z</time></trkpt><trkpt lat="43.299171360617564" lon="12.89818515635414"><ele>730.0</ele><time>2026-04-29T13:24:37Z</time></trkpt><trkpt lat="43.299104053271485" lon="12.898096683140981"><ele>727.8571428571429</ele><time>2026-04-29T13:24:40Z</time></trkpt><trkpt lat="43.29905922104368" lon="12.898035581541366"><ele>725.7142857142858</ele><time>2026-04-29T13:24:42Z</time></trkpt><trkpt lat="43.29901084441162" lon="12.897972432993875"><ele>723.5714285714287</ele><time>2026-04-29T13:24:44Z</time></trkpt><trkpt lat="43.29896750187837" lon="12.897907529062204"><ele>721.4285714285714</ele><time>2026-04-29T13:24:46Z</time></trkpt><trkpt lat="43.298929146135116" lon="12.897837264086613"><ele>719.2857142857142</ele><time>2026-04-29T13:24:48Z</time></trkpt><trkpt lat="43.298897054702906" lon="12.897758029021896"><ele>717.1428571428572</ele><time>2026-04-29T13:24:50Z</time></trkpt><trkpt lat="43.2988724294121" lon="12.897674581029456"><ele>715.0</ele><time>2026-04-29T13:24:52Z</time></trkpt><trkpt lat="43.29884953551496" lon="12.89758835353967"><ele>717.2857142857143</ele><time>2026-04-29T13:24:54Z</time></trkpt><trkpt lat="43.29883442172506" lon="12.897500041867469"><ele>719.5714285714286</ele><time>2026-04-29T13:24:56Z</time></trkpt><trkpt lat="43.29882714025251" lon="12.897410778405394"><ele>721.8571428571429</ele><time>2026-04-29T13:24:58Z</time></trkpt><trkpt lat="43.29884366032203" lon="12.89731484561335"><ele>724.1428571428571</ele><time>2026-04-29T13:25:00Z</time></trkpt><trkpt lat="43.29883899090819" lon="12.897215546983716"><ele>726.4285714285713</ele><time>2026-04-29T13:25:02Z</time></trkpt><trkpt lat="43.29882425367639" lon="12.897120968131901"><ele>728.7142857142857</ele><time>2026-04-29T13:25:04Z</time></trkpt><trkpt lat="43.298800735360494" lon="12.89703011061817"><ele>731.0</ele><time>2026-04-29T13:25:06.001Z</time></trkpt><trkpt lat="43.298776166490626" lon="12.896947240070036"><ele>731.0</ele><time>2026-04-29T13:25:08.001Z</time></trkpt><trkpt lat="43.29873963950509" lon="12.896869453823927"><ele>731.0</ele><time>2026-04-29T13:25:10.001Z</time></trkpt><trkpt lat="43.298699985027895" lon="12.896793080333794"><ele>731.0</ele><time>2026-04-29T13:25:12Z</time></trkpt><trkpt lat="43.29865894319047" lon="12.896720879027898"><ele>731.0</ele><time>2026-04-29T13:25:14Z</time></trkpt><trkpt lat="43.29861920433176" lon="12.89665129181027"><ele>731.0</ele><time>2026-04-29T13:25:16Z</time></trkpt><trkpt lat="43.29858327074222" lon="12.896579524345704"><ele>731.0</ele><time>2026-04-29T13:25:18Z</time></trkpt><trkpt lat="43.298548635033335" lon="12.896505467528764"><ele>731.0</ele><time>2026-04-29T13:25:20Z</time></trkpt><trkpt lat="43.29850321839253" lon="12.896395533419714"><ele>733.8571428571429</ele><time>2026-04-29T13:25:23Z</time></trkpt><trkpt lat="43.29847332598017" lon="12.896316477443504"><ele>736.7142857142857</ele><time>2026-04-29T13:25:25Z</time></trkpt><trkpt lat="43.298438594577206" lon="12.896236781753812"><ele>739.5714285714287</ele><time>2026-04-29T13:25:27Z</time></trkpt><trkpt lat="43.29840726377149" lon="12.896155657042772"><ele>742.4285714285714</ele><time>2026-04-29T13:25:29Z</time></trkpt><trkpt lat="43.29836816722035" lon="12.89608185965745"><ele>745.2857142857143</ele><time>2026-04-29T13:25:31Z</time></trkpt><trkpt lat="43.298331506369635" lon="12.896006806346712"><ele>748.1428571428572</ele><time>2026-04-29T13:25:33Z</time></trkpt><trkpt lat="43.29829120224912" lon="12.895935269746085"><ele>751.0</ele><time>2026-04-29T13:25:35Z</time></trkpt><trkpt lat="43.29822520893553" lon="12.895845733345528"><ele>754.4285714285714</ele><time>2026-04-29T13:25:38Z</time></trkpt><trkpt lat="43.29818089994454" lon="12.89578091597773"><ele>757.8571428571429</ele><time>2026-04-29T13:25:40Z</time></trkpt><trkpt lat="43.29813995209422" lon="12.895708070616974"><ele>761.2857142857142</ele><time>2026-04-29T13:25:42Z</time></trkpt><trkpt lat="43.29810646056047" lon="12.89562432778218"><ele>764.7142857142858</ele><time>2026-04-29T13:25:44Z</time></trkpt><trkpt lat="43.29808311187368" lon="12.8955372697396"><ele>768.1428571428571</ele><time>2026-04-29T13:25:46Z</time></trkpt><trkpt lat="43.29806051669299" lon="12.895444136812868"><ele>771.5714285714286</ele><time>2026-04-29T13:25:48Z</time></trkpt><trkpt lat="43.298029681753746" lon="12.895348291132754"><ele>775.0</ele><time>2026-04-29T13:25:50Z</time></trkpt><trkpt lat="43.297996536780325" lon="12.895256401494802"><ele>769.9999999999999</ele><time>2026-04-29T13:25:52Z</time></trkpt><trkpt lat="43.29796148047856" lon="12.895165301321233"><ele>765.0</ele><time>2026-04-29T13:25:54Z</time></trkpt><trkpt lat="43.29792560029118" lon="12.895073541029406"><ele>760.0</ele><time>2026-04-29T13:25:56Z</time></trkpt><trkpt lat="43.29788892858534" lon="12.894982940923496"><ele>755.0</ele><time>2026-04-29T13:25:58Z</time></trkpt><trkpt lat="43.29785183174214" lon="12.894892473753536"><ele>750.0</ele><time>2026-04-29T13:26:00Z</time></trkpt><trkpt lat="43.29781705280013" lon="12.894797375182977"><ele>745.0</ele><time>2026-04-29T13:26:02Z</time></trkpt><trkpt lat="43.29777861108152" lon="12.894706554315247"><ele>745.0</ele><time>2026-04-29T13:26:04Z</time></trkpt><trkpt lat="43.2977381246394" lon="12.89462169941648"><ele>745.0</ele><time>2026-04-29T13:26:06Z</time></trkpt><trkpt lat="43.297693470483864" lon="12.894535184245973"><ele>745.0</ele><time>2026-04-29T13:26:08Z</time></trkpt><trkpt lat="43.29764886359745" lon="12.89444926886527"><ele>745.0</ele><time>2026-04-29T13:26:10Z</time></trkpt><trkpt lat="43.29760967668459" lon="12.894366433618385"><ele>745.0</ele><time>2026-04-29T13:26:12Z</time></trkpt><trkpt lat="43.297575406722935" lon="12.894292853806398"><ele>745.0</ele><time>2026-04-29T13:26:14Z</time></trkpt><trkpt lat="43.2975300955934" lon="12.894210487274467"><ele>745.0</ele><time>2026-04-29T13:26:16Z</time></trkpt><trkpt lat="43.297480705028455" lon="12.894123198632993"><ele>743.1666666666667</ele><time>2026-04-29T13:26:18Z</time></trkpt><trkpt lat="43.29742967049959" lon="12.89403801688375"><ele>741.3333333333334</ele><time>2026-04-29T13:26:20Z</time></trkpt><trkpt lat="43.2973766545393" lon="12.893959927143925"><ele>739.5</ele><time>2026-04-29T13:26:22Z</time></trkpt><trkpt lat="43.29732045789506" lon="12.893884401786382"><ele>737.6666666666666</ele><time>2026-04-29T13:26:24Z</time></trkpt><trkpt lat="43.297261707582834" lon="12.89380655213402"><ele>735.8333333333333</ele><time>2026-04-29T13:26:26Z</time></trkpt><trkpt lat="43.29720182337628" lon="12.893728885884443"><ele>734.0</ele><time>2026-04-29T13:26:28Z</time></trkpt><trkpt lat="43.29713932571744" lon="12.893654072910632"><ele>734.0</ele><time>2026-04-29T13:26:30Z</time></trkpt><trkpt lat="43.29707584312828" lon="12.893586405550355"><ele>734.0</ele><time>2026-04-29T13:26:32Z</time></trkpt><trkpt lat="43.29701580703303" lon="12.893516406915614"><ele>734.0</ele><time>2026-04-29T13:26:34Z</time></trkpt><trkpt lat="43.296954568708806" lon="12.893446506031216"><ele>734.0</ele><time>2026-04-29T13:26:36Z</time></trkpt><trkpt lat="43.29689615375631" lon="12.89336834115533"><ele>734.0</ele><time>2026-04-29T13:26:38Z</time></trkpt><trkpt lat="43.29683607228472" lon="12.893292583314508"><ele>734.0</ele><time>2026-04-29T13:26:40Z</time></trkpt><trkpt lat="43.29677405126031" lon="12.893222216572129"><ele>739.0</ele><time>2026-04-29T13:26:42Z</time></trkpt><trkpt lat="43.296712631059066" lon="12.89315398805725"><ele>744.0</ele><time>2026-04-29T13:26:44Z</time></trkpt><trkpt lat="43.296655110187395" lon="12.893082206350218"><ele>749.0</ele><time>2026-04-29T13:26:46Z</time></trkpt><trkpt lat="43.29660114871374" lon="12.893010313807459"><ele>754.0</ele><time>2026-04-29T13:26:48Z</time></trkpt><trkpt lat="43.29654906500416" lon="12.892931112772452"><ele>759.0</ele><time>2026-04-29T13:26:50Z</time></trkpt><trkpt lat="43.29649387225248" lon="12.892857378032417"><ele>764.0</ele><time>2026-04-29T13:26:52Z</time></trkpt><trkpt lat="43.29644181332957" lon="12.89278151350281"><ele>762.5</ele><time>2026-04-29T13:26:54Z</time></trkpt><trkpt lat="43.29638845541569" lon="12.892699829363606"><ele>761.0</ele><time>2026-04-29T13:26:56Z</time></trkpt><trkpt lat="43.29633692882453" lon="12.892616798987673"><ele>759.5</ele><time>2026-04-29T13:26:58Z</time></trkpt><trkpt lat="43.296284163277235" lon="12.89253417326039"><ele>758.0</ele><time>2026-04-29T13:27:00Z</time></trkpt><trkpt lat="43.29623718796338" lon="12.89245587135925"><ele>756.5</ele><time>2026-04-29T13:27:02Z</time></trkpt><trkpt lat="43.296197184408264" lon="12.892383511571659"><ele>755.0</ele><time>2026-04-29T13:27:04Z</time></trkpt><trkpt lat="43.29614135453489" lon="12.892292616699235"><ele>755.0</ele><time>2026-04-29T13:27:07Z</time></trkpt><trkpt lat="43.296080046942045" lon="12.892197315233998"><ele>755.0</ele><time>2026-04-29T13:27:10Z</time></trkpt><trkpt lat="43.29603811185219" lon="12.892129574386335"><ele>755.0</ele><time>2026-04-29T13:27:12Z</time></trkpt><trkpt lat="43.29599552310445" lon="12.8920632720265"><ele>755.0</ele><time>2026-04-29T13:27:14Z</time></trkpt><trkpt lat="43.29594322750005" lon="12.891969109581607"><ele>755.0</ele><time>2026-04-29T13:27:17Z</time></trkpt><trkpt lat="43.29589513017929" lon="12.891893958455356"><ele>755.0</ele><time>2026-04-29T13:27:20Z</time></trkpt><trkpt lat="43.295840618871914" lon="12.891811460009066"><ele>755.0</ele><time>2026-04-29T13:27:23Z</time></trkpt><trkpt lat="43.29577376480474" lon="12.891773612121732"><ele>755.0</ele><time>2026-04-29T13:27:26Z</time></trkpt><trkpt lat="43.29571121211551" lon="12.891730526037724"><ele>755.0</ele><time>2026-04-29T13:27:29Z</time></trkpt><trkpt lat="43.29566252531756" lon="12.891663859432715"><ele>755.0</ele><time>2026-04-29T13:27:32Z</time></trkpt><trkpt lat="43.2956106581162" lon="12.891601614802775"><ele>755.0</ele><time>2026-04-29T13:27:34Z</time></trkpt><trkpt lat="43.29554203135413" lon="12.891513522827267"><ele>755.0</ele><time>2026-04-29T13:27:36Z</time></trkpt><trkpt lat="43.29547016711193" lon="12.891393267962247"><ele>755.5</ele><time>2026-04-29T13:27:38Z</time></trkpt><trkpt lat="43.29554282511855" lon="12.89123768550537"><ele>756.0</ele><time>2026-04-29T13:27:39Z</time></trkpt><trkpt lat="43.29550303543008" lon="12.89115125219589"><ele>756.5</ele><time>2026-04-29T13:27:40Z</time></trkpt><trkpt lat="43.29546079509517" lon="12.891060251231805"><ele>757.0</ele><time>2026-04-29T13:27:41Z</time></trkpt><trkpt lat="43.29542562071272" lon="12.890986608114817"><ele>757.5</ele><time>2026-04-29T13:27:42Z</time></trkpt><trkpt lat="43.295386755181084" lon="12.890905236899549"><ele>758.0</ele><time>2026-04-29T13:27:43Z</time></trkpt><trkpt lat="43.29533920454288" lon="12.890803202965609"><ele>758.0</ele><time>2026-04-29T13:27:44Z</time></trkpt><trkpt lat="43.29530448998077" lon="12.89072252753074"><ele>758.0</ele><time>2026-04-29T13:27:45Z</time></trkpt><trkpt lat="43.29526483299413" lon="12.890627709346925"><ele>758.0</ele><time>2026-04-29T13:27:46Z</time></trkpt><trkpt lat="43.29522430854821" lon="12.890530818086036"><ele>758.0</ele><time>2026-04-29T13:27:47Z</time></trkpt><trkpt lat="43.29519687792141" lon="12.8904482038446"><ele>758.0</ele><time>2026-04-29T13:27:48Z</time></trkpt><trkpt lat="43.29514414303877" lon="12.890279639393569"><ele>758.0</ele><time>2026-04-29T13:27:50Z</time></trkpt><trkpt lat="43.295097213627415" lon="12.89010293224915"><ele>759.0</ele><time>2026-04-29T13:27:52Z</time></trkpt><trkpt lat="43.295053491357315" lon="12.889947902976475"><ele>760.0</ele><time>2026-04-29T13:27:54Z</time></trkpt><trkpt lat="43.2950446226912" lon="12.889834259986461"><ele>761.0</ele><time>2026-04-29T13:27:55Z</time></trkpt><trkpt lat="43.295023042806875" lon="12.889722183170965"><ele>762.0</ele><time>2026-04-29T13:27:56Z</time></trkpt><trkpt lat="43.29500970757341" lon="12.889630233171134"><ele>763.0</ele><time>2026-04-29T13:27:57Z</time></trkpt><trkpt lat="43.2949949229099" lon="12.889531576127213"><ele>764.0</ele><time>2026-04-29T13:27:58Z</time></trkpt><trkpt lat="43.2949772250185" lon="12.889410868069263"><ele>764.0</ele><time>2026-04-29T13:27:59Z</time></trkpt><trkpt lat="43.29496687299506" lon="12.889317912638681"><ele>764.0</ele><time>2026-04-29T13:28:00Z</time></trkpt><trkpt lat="43.29495400149057" lon="12.889161092793632"><ele>764.0</ele><time>2026-04-29T13:28:02Z</time></trkpt><trkpt lat="43.29494897893408" lon="12.889051829145517"><ele>764.0</ele><time>2026-04-29T13:28:04Z</time></trkpt><trkpt lat="43.294928000862924" lon="12.888967903958903"><ele>764.0</ele><time>2026-04-29T13:28:06Z</time></trkpt><trkpt lat="43.294190345751026" lon="12.889065023661551"><ele>760.3333333333333</ele><time>2026-04-29T13:28:08Z</time></trkpt><trkpt lat="43.29415705797827" lon="12.88914484673209"><ele>756.6666666666666</ele><time>2026-04-29T13:28:10Z</time></trkpt><trkpt lat="43.2941419125744" lon="12.88925668194444"><ele>753.0</ele><time>2026-04-29T13:28:12Z</time></trkpt><trkpt lat="43.29412634915256" lon="12.88938476302856"><ele>749.3333333333334</ele><time>2026-04-29T13:28:14Z</time></trkpt><trkpt lat="43.29411119984964" lon="12.889539236446758"><ele>745.6666666666667</ele><time>2026-04-29T13:28:16Z</time></trkpt><trkpt lat="43.29410107930513" lon="12.889626486300582"><ele>742.0</ele><time>2026-04-29T13:28:17Z</time></trkpt><trkpt lat="43.29409087614383" lon="12.889717585256726"><ele>741.8333333333334</ele><time>2026-04-29T13:28:18Z</time></trkpt><trkpt lat="43.29406278871006" lon="12.889809016197093"><ele>741.6666666666667</ele><time>2026-04-29T13:28:19Z</time></trkpt><trkpt lat="43.29403219057953" lon="12.889903704558618"><ele>741.5</ele><time>2026-04-29T13:28:20Z</time></trkpt><trkpt lat="43.29400859585241" lon="12.890005408075996"><ele>741.3333333333334</ele><time>2026-04-29T13:28:21Z</time></trkpt><trkpt lat="43.29399005907305" lon="12.890104267636774"><ele>741.1666666666666</ele><time>2026-04-29T13:28:22Z</time></trkpt><trkpt lat="43.29395126123788" lon="12.89020899187245"><ele>741.0</ele><time>2026-04-29T13:28:23Z</time></trkpt><trkpt lat="43.29393500480209" lon="12.890310623789954"><ele>737.5999999999999</ele><time>2026-04-29T13:28:24Z</time></trkpt><trkpt lat="43.29391471727429" lon="12.890399451768785"><ele>734.2</ele><time>2026-04-29T13:28:25Z</time></trkpt><trkpt lat="43.29388660789326" lon="12.890578623442922"><ele>730.8</ele><time>2026-04-29T13:28:27Z</time></trkpt><trkpt lat="43.29386573511945" lon="12.890742870578379"><ele>727.4000000000001</ele><time>2026-04-29T13:28:29Z</time></trkpt><trkpt lat="43.29384737213282" lon="12.890892597571762"><ele>724.0</ele><time>2026-04-29T13:28:31Z</time></trkpt><trkpt lat="43.29381675247142" lon="12.890976800085026"><ele>723.8571428571429</ele><time>2026-04-29T13:28:32Z</time></trkpt><trkpt lat="43.2938109817801" lon="12.891063405091732"><ele>723.7142857142857</ele><time>2026-04-29T13:28:33Z</time></trkpt><trkpt lat="43.293789601824614" lon="12.891148279457312"><ele>723.5714285714287</ele><time>2026-04-29T13:28:34Z</time></trkpt><trkpt lat="43.29377675048196" lon="12.89125476067966"><ele>723.4285714285714</ele><time>2026-04-29T13:28:36Z</time></trkpt><trkpt lat="43.293757818286956" lon="12.891368631388554"><ele>723.2857142857143</ele><time>2026-04-29T13:28:38Z</time></trkpt><trkpt lat="43.29372556296419" lon="12.891477596934559"><ele>723.1428571428572</ele><time>2026-04-29T13:28:41Z</time></trkpt><trkpt lat="43.2937296989467" lon="12.891571969249789"><ele>723.0</ele><time>2026-04-29T13:28:44Z</time></trkpt><trkpt lat="43.29373322410979" lon="12.891685221929217"><ele>722.0</ele><time>2026-04-29T13:28:48Z</time></trkpt><trkpt lat="43.29373130806445" lon="12.891801825062048"><ele>721.0</ele><time>2026-04-29T13:28:51Z</time></trkpt><trkpt lat="43.29374183903503" lon="12.891910429924604"><ele>720.0</ele><time>2026-04-29T13:28:53Z</time></trkpt><trkpt lat="43.29377446906039" lon="12.89207794201456"><ele>719.0</ele><time>2026-04-29T13:28:55Z</time></trkpt><trkpt lat="43.29378642732893" lon="12.892191860861011"><ele>718.0</ele><time>2026-04-29T13:28:57Z</time></trkpt><trkpt lat="43.29381519168093" lon="12.892327889138251"><ele>718.0</ele><time>2026-04-29T13:28:59Z</time></trkpt><trkpt lat="43.29383385980426" lon="12.89246325465308"><ele>718.0</ele><time>2026-04-29T13:29:01Z</time></trkpt><trkpt lat="43.293866805437794" lon="12.89258548915505"><ele>718.0</ele><time>2026-04-29T13:29:03Z</time></trkpt><trkpt lat="43.29391453737897" lon="12.892649620894773"><ele>718.0</ele><time>2026-04-29T13:29:04Z</time></trkpt><trkpt lat="43.29385317207917" lon="12.892769004270663"><ele>718.0</ele><time>2026-04-29T13:29:06Z</time></trkpt><trkpt lat="43.29375936213565" lon="12.892837564474286"><ele>715.75</ele><time>2026-04-29T13:29:08Z</time></trkpt><trkpt lat="43.29364100068852" lon="12.892839007795736"><ele>713.5</ele><time>2026-04-29T13:29:09.999Z</time></trkpt><trkpt lat="43.29353299968145" lon="12.89280537222313"><ele>711.25</ele><time>2026-04-29T13:29:11.999Z</time></trkpt><trkpt lat="43.29342630721195" lon="12.892819576410057"><ele>709.0</ele><time>2026-04-29T13:29:13.999Z</time></trkpt><trkpt lat="43.293314490631886" lon="12.89284929415119"><ele>709.0</ele><time>2026-04-29T13:29:15.999Z</time></trkpt><trkpt lat="43.293205581631675" lon="12.892876866990116"><ele>709.0</ele><time>2026-04-29T13:29:18Z</time></trkpt><trkpt lat="43.293098111638514" lon="12.892888595877396"><ele>709.0</ele><time>2026-04-29T13:29:20Z</time></trkpt><trkpt lat="43.29299639365007" lon="12.892895386618441"><ele>709.0</ele><time>2026-04-29T13:29:22Z</time></trkpt><trkpt lat="43.29290135626878" lon="12.89291682340218"><ele>709.0</ele><time>2026-04-29T13:29:24Z</time></trkpt><trkpt lat="43.29280414842156" lon="12.89294633151324"><ele>707.0</ele><time>2026-04-29T13:29:26Z</time></trkpt><trkpt lat="43.29269037930811" lon="12.892944370421596"><ele>705.0</ele><time>2026-04-29T13:29:28Z</time></trkpt><trkpt lat="43.292595872467324" lon="12.89300543102323"><ele>703.0</ele><time>2026-04-29T13:29:30Z</time></trkpt><trkpt lat="43.29248954008374" lon="12.893010455133298"><ele>701.0</ele><time>2026-04-29T13:29:32Z</time></trkpt><trkpt lat="43.29236528960045" lon="12.893029337631537"><ele>701.0</ele><time>2026-04-29T13:29:34Z</time></trkpt><trkpt lat="43.292301113495085" lon="12.89302613232001"><ele>701.0</ele><time>2026-04-29T13:29:35Z</time></trkpt><trkpt lat="43.29218425967647" lon="12.893009937354876"><ele>701.0</ele><time>2026-04-29T13:29:37Z</time></trkpt><trkpt lat="43.292111166441245" lon="12.893007026301966"><ele>701.0</ele><time>2026-04-29T13:29:38Z</time></trkpt><trkpt lat="43.29204175817438" lon="12.89300148057681"><ele>701.0</ele><time>2026-04-29T13:29:39Z</time></trkpt><trkpt lat="43.29197181853583" lon="12.892998984603487"><ele>701.0</ele><time>2026-04-29T13:29:40Z</time></trkpt><trkpt lat="43.29190567564065" lon="12.893000261418141"><ele>700.0</ele><time>2026-04-29T13:29:41Z</time></trkpt><trkpt lat="43.291838314483044" lon="12.892997803288324"><ele>699.0</ele><time>2026-04-29T13:29:42Z</time></trkpt><trkpt lat="43.29177376906179" lon="12.892996287663046"><ele>698.0</ele><time>2026-04-29T13:29:43Z</time></trkpt><trkpt lat="43.29170904834332" lon="12.89299342008003"><ele>697.0</ele><time>2026-04-29T13:29:44Z</time></trkpt><trkpt lat="43.29164452374051" lon="12.892988655930136"><ele>696.0</ele><time>2026-04-29T13:29:45Z</time></trkpt><trkpt lat="43.29157892450565" lon="12.892993792133336"><ele>695.0</ele><time>2026-04-29T13:29:46Z</time></trkpt><trkpt lat="43.291457625508954" lon="12.892972539636137"><ele>694.0</ele><time>2026-04-29T13:29:48Z</time></trkpt><trkpt lat="43.29133604911337" lon="12.892967038407953"><ele>691.0</ele><time>2026-04-29T13:29:50Z</time></trkpt><trkpt lat="43.29127144774548" lon="12.892961093497858"><ele>688.0</ele><time>2026-04-29T13:29:51Z</time></trkpt><trkpt lat="43.291206170921505" lon="12.892943025041989"><ele>685.0</ele><time>2026-04-29T13:29:52Z</time></trkpt><trkpt lat="43.2910817318025" lon="12.892908209909459"><ele>682.0</ele><time>2026-04-29T13:29:54Z</time></trkpt><trkpt lat="43.290962535153376" lon="12.892861061093484"><ele>679.0</ele><time>2026-04-29T13:29:56Z</time></trkpt><trkpt lat="43.290843230532374" lon="12.892807838487679"><ele>679.0</ele><time>2026-04-29T13:29:58Z</time></trkpt><trkpt lat="43.29072818394453" lon="12.892752490163097"><ele>679.0</ele><time>2026-04-29T13:30:00Z</time></trkpt><trkpt lat="43.29067167628352" lon="12.892712694526583"><ele>679.0</ele><time>2026-04-29T13:30:01Z</time></trkpt><trkpt lat="43.290557298787235" lon="12.8926404832228"><ele>679.0</ele><time>2026-04-29T13:30:03Z</time></trkpt><trkpt lat="43.29046610508551" lon="12.89258342196957"><ele>679.0</ele><time>2026-04-29T13:30:05Z</time></trkpt><trkpt lat="43.29038109235537" lon="12.892495803139195"><ele>678.5</ele><time>2026-04-29T13:30:07Z</time></trkpt><trkpt lat="43.290325423202475" lon="12.892380983803728"><ele>678.0</ele><time>2026-04-29T13:30:09Z</time></trkpt><trkpt lat="43.290235448296876" lon="12.892328646049586"><ele>677.5</ele><time>2026-04-29T13:30:11Z</time></trkpt><trkpt lat="43.29013978381144" lon="12.892353908526273"><ele>677.0</ele><time>2026-04-29T13:30:13Z</time></trkpt><trkpt lat="43.290126158945604" lon="12.892449955962453"><ele>676.5</ele><time>2026-04-29T13:30:15Z</time></trkpt><trkpt lat="43.290160863138475" lon="12.892547466842892"><ele>676.0</ele><time>2026-04-29T13:30:17Z</time></trkpt><trkpt lat="43.290219043870444" lon="12.892620694738685"><ele>674.6666666666667</ele><time>2026-04-29T13:30:19Z</time></trkpt><trkpt lat="43.29027865480458" lon="12.892687540952005"><ele>673.3333333333334</ele><time>2026-04-29T13:30:21Z</time></trkpt><trkpt lat="43.2903368158253" lon="12.892786202567219"><ele>672.0</ele><time>2026-04-29T13:30:23Z</time></trkpt><trkpt lat="43.29039332711165" lon="12.892851587533892"><ele>670.6666666666666</ele><time>2026-04-29T13:30:25Z</time></trkpt><trkpt lat="43.290441457568804" lon="12.89295080539045"><ele>669.3333333333333</ele><time>2026-04-29T13:30:27Z</time></trkpt><trkpt lat="43.29048196572401" lon="12.893045721555286"><ele>668.0</ele><time>2026-04-29T13:30:29Z</time></trkpt><trkpt lat="43.29053075988462" lon="12.893118980495935"><ele>668.0</ele><time>2026-04-29T13:30:31Z</time></trkpt><trkpt lat="43.290570717073486" lon="12.893253681218008"><ele>668.0</ele><time>2026-04-29T13:30:33Z</time></trkpt><trkpt lat="43.29063689501316" lon="12.893365548998618"><ele>668.0</ele><time>2026-04-29T13:30:35Z</time></trkpt><trkpt lat="43.29070769103762" lon="12.893498270637695"><ele>668.0</ele><time>2026-04-29T13:30:37Z</time></trkpt><trkpt lat="43.290785834819594" lon="12.893601186040557"><ele>668.0</ele><time>2026-04-29T13:30:39Z</time></trkpt><trkpt lat="43.290878800972564" lon="12.893680170391637"><ele>667.1666666666666</ele><time>2026-04-29T13:30:41Z</time></trkpt><trkpt lat="43.29096620352476" lon="12.893759587496907"><ele>666.3333333333333</ele><time>2026-04-29T13:30:43Z</time></trkpt><trkpt lat="43.2910643960269" lon="12.893813928406054"><ele>665.5</ele><time>2026-04-29T13:30:45Z</time></trkpt><trkpt lat="43.29114818659634" lon="12.893860691608648"><ele>664.6666666666666</ele><time>2026-04-29T13:30:47Z</time></trkpt><trkpt lat="43.29119757480474" lon="12.893921621158771"><ele>663.8333333333334</ele><time>2026-04-29T13:30:49Z</time></trkpt><trkpt lat="43.29120589145721" lon="12.894012503414718"><ele>663.0</ele><time>2026-04-29T13:32:03Z</time></trkpt><trkpt lat="43.291162361193756" lon="12.894100177918828"><ele>663.0</ele><time>2026-04-29T13:32:07Z</time></trkpt><trkpt lat="43.291100845527794" lon="12.894157004397144"><ele>663.0</ele><time>2026-04-29T13:32:09Z</time></trkpt><trkpt lat="43.291026527132175" lon="12.894198995835257"><ele>663.0</ele><time>2026-04-29T13:32:11Z</time></trkpt><trkpt lat="43.290952272779286" lon="12.894208849879218"><ele>663.0</ele><time>2026-04-29T13:32:12Z</time></trkpt><trkpt lat="43.290847408130766" lon="12.894260545230846"><ele>663.0</ele><time>2026-04-29T13:32:14Z</time></trkpt><trkpt lat="43.29078935737345" lon="12.894294065330476"><ele>663.0</ele><time>2026-04-29T13:32:15Z</time></trkpt><trkpt lat="43.29068445892452" lon="12.89436587595642"><ele>661.3333333333334</ele><time>2026-04-29T13:32:17Z</time></trkpt><trkpt lat="43.2906287916923" lon="12.894419034171412"><ele>659.6666666666666</ele><time>2026-04-29T13:32:18Z</time></trkpt><trkpt lat="43.29057511384998" lon="12.894466735729543"><ele>658.0</ele><time>2026-04-29T13:32:19Z</time></trkpt><trkpt lat="43.29046828150412" lon="12.894559919425443"><ele>656.3333333333333</ele><time>2026-04-29T13:32:21Z</time></trkpt><trkpt lat="43.29039624469147" lon="12.894601979943666"><ele>654.6666666666666</ele><time>2026-04-29T13:32:22Z</time></trkpt><trkpt lat="43.290330417499774" lon="12.894620329603214"><ele>653.0</ele><time>2026-04-29T13:32:24Z</time></trkpt><trkpt lat="43.290252811316435" lon="12.894602778704186"><ele>655.1428571428572</ele><time>2026-04-29T13:32:27Z</time></trkpt><trkpt lat="43.29019444777328" lon="12.894568092152202"><ele>657.2857142857143</ele><time>2026-04-29T13:32:31Z</time></trkpt><trkpt lat="43.29013630560528" lon="12.894515094906668"><ele>659.4285714285714</ele><time>2026-04-29T13:32:36Z</time></trkpt><trkpt lat="43.29007934087797" lon="12.894439711658425"><ele>661.5714285714287</ele><time>2026-04-29T13:32:42Z</time></trkpt><trkpt lat="43.29001401076212" lon="12.894368494927798"><ele>663.7142857142858</ele><time>2026-04-29T13:32:47Z</time></trkpt><trkpt lat="43.28995577487318" lon="12.894309609944207"><ele>665.8571428571429</ele><time>2026-04-29T13:32:51Z</time></trkpt><trkpt lat="43.28990109253046" lon="12.894251968986534"><ele>668.0</ele><time>2026-04-29T13:32:55Z</time></trkpt><trkpt lat="43.2898396725912" lon="12.89419349129487"><ele>668.0</ele><time>2026-04-29T13:32:59Z</time></trkpt><trkpt lat="43.28978084953769" lon="12.89414051844975"><ele>668.0</ele><time>2026-04-29T13:33:02Z</time></trkpt><trkpt lat="43.289724596242266" lon="12.894084887209347"><ele>668.0</ele><time>2026-04-29T13:33:06Z</time></trkpt><trkpt lat="43.289651891091815" lon="12.894026073950494"><ele>668.0</ele><time>2026-04-29T13:33:09Z</time></trkpt><trkpt lat="43.289593023122826" lon="12.893977052919485"><ele>668.0</ele><time>2026-04-29T13:33:12Z</time></trkpt><trkpt lat="43.28954080757312" lon="12.893923737897286"><ele>668.0</ele><time>2026-04-29T13:33:15Z</time></trkpt><trkpt lat="43.28947386170003" lon="12.893863061567169"><ele>668.0</ele><time>2026-04-29T13:33:19Z</time></trkpt><trkpt lat="43.28940708097147" lon="12.8938070231043"><ele>671.0</ele><time>2026-04-29T13:33:23Z</time></trkpt><trkpt lat="43.28934602070948" lon="12.89375975104606"><ele>674.0</ele><time>2026-04-29T13:33:26Z</time></trkpt><trkpt lat="43.289280664527986" lon="12.893718547281383"><ele>677.0</ele><time>2026-04-29T13:33:29.001Z</time></trkpt><trkpt lat="43.289196571578515" lon="12.89366111410498"><ele>680.0</ele><time>2026-04-29T13:33:33.001Z</time></trkpt><trkpt lat="43.28912086623536" lon="12.893613292335246"><ele>683.0</ele><time>2026-04-29T13:33:37.001Z</time></trkpt><trkpt lat="43.28904254357199" lon="12.8935740383127"><ele>686.0</ele><time>2026-04-29T13:33:41.001Z</time></trkpt><trkpt lat="43.288979780512946" lon="12.89354196414896"><ele>683.7142857142857</ele><time>2026-04-29T13:33:44.001Z</time></trkpt><trkpt lat="43.28890818050639" lon="12.89350536897127"><ele>681.4285714285714</ele><time>2026-04-29T13:33:48.001Z</time></trkpt><trkpt lat="43.28884791391524" lon="12.893479188022104"><ele>679.1428571428571</ele><time>2026-04-29T13:33:51Z</time></trkpt><trkpt lat="43.28878108622503" lon="12.893480405207997"><ele>676.8571428571429</ele><time>2026-04-29T13:33:54Z</time></trkpt><trkpt lat="43.28871564009243" lon="12.893506517620882"><ele>674.5714285714286</ele><time>2026-04-29T13:33:57Z</time></trkpt><trkpt lat="43.28866413767589" lon="12.893562624148922"><ele>672.2857142857142</ele><time>2026-04-29T13:34:00Z</time></trkpt><trkpt lat="43.288629287664534" lon="12.893641321040041"><ele>670.0</ele><time>2026-04-29T13:34:03Z</time></trkpt><trkpt lat="43.28861387677888" lon="12.893729559874089"><ele>669.9999999999999</ele><time>2026-04-29T13:34:06Z</time></trkpt><trkpt lat="43.28860290228051" lon="12.893829161050045"><ele>670.0</ele><time>2026-04-29T13:34:09Z</time></trkpt><trkpt lat="43.28859329087937" lon="12.893928635271442"><ele>670.0</ele><time>2026-04-29T13:34:12Z</time></trkpt><trkpt lat="43.28858275527767" lon="12.894023224587102"><ele>670.0</ele><time>2026-04-29T13:34:15Z</time></trkpt><trkpt lat="43.28856601414358" lon="12.89411902608123"><ele>670.0</ele><time>2026-04-29T13:34:18Z</time></trkpt><trkpt lat="43.28855332238498" lon="12.894228549993608"><ele>669.9999999999999</ele><time>2026-04-29T13:34:21Z</time></trkpt><trkpt lat="43.288553677892374" lon="12.894316490698"><ele>670.0</ele><time>2026-04-29T13:34:24Z</time></trkpt><trkpt lat="43.28852881993629" lon="12.894431480538119"><ele>671.5</ele><time>2026-04-29T13:34:27Z</time></trkpt><trkpt lat="43.28852676070059" lon="12.894531932479959"><ele>673.0</ele><time>2026-04-29T13:34:30Z</time></trkpt><trkpt lat="43.28852771807628" lon="12.894627917742621"><ele>674.5</ele><time>2026-04-29T13:34:33Z</time></trkpt><trkpt lat="43.288530582846136" lon="12.894736387302432"><ele>676.0</ele><time>2026-04-29T13:34:36Z</time></trkpt><trkpt lat="43.28853824946096" lon="12.89485234625219"><ele>677.5</ele><time>2026-04-29T13:34:39Z</time></trkpt><trkpt lat="43.288560778379185" lon="12.894959064417218"><ele>679.0</ele><time>2026-04-29T13:34:42Z</time></trkpt><trkpt lat="43.28858011297978" lon="12.89504912976486"><ele>680.5</ele><time>2026-04-29T13:34:45Z</time></trkpt><trkpt lat="43.28860264351533" lon="12.895148982997565"><ele>682.0</ele><time>2026-04-29T13:34:48Z</time></trkpt><trkpt lat="43.288636756822164" lon="12.895234052959086"><ele>683.5</ele><time>2026-04-29T13:34:51Z</time></trkpt><trkpt lat="43.28866187337391" lon="12.89534008277131"><ele>685.0</ele><time>2026-04-29T13:34:54Z</time></trkpt><trkpt lat="43.288695074942545" lon="12.89544143976688"><ele>686.5</ele><time>2026-04-29T13:34:57Z</time></trkpt><trkpt lat="43.28872876939177" lon="12.895541530076871"><ele>688.0</ele><time>2026-04-29T13:35:00Z</time></trkpt><trkpt lat="43.28876298160636" lon="12.895648130755385"><ele>688.0000000000001</ele><time>2026-04-29T13:35:03Z</time></trkpt><trkpt lat="43.28879465023915" lon="12.895746938316702"><ele>688.0</ele><time>2026-04-29T13:35:06Z</time></trkpt><trkpt lat="43.288825266152" lon="12.895844233365539"><ele>688.0</ele><time>2026-04-29T13:35:09Z</time></trkpt><trkpt lat="43.28884038919078" lon="12.895931611182064"><ele>688.0</ele><time>2026-04-29T13:35:11Z</time></trkpt><trkpt lat="43.28887381130655" lon="12.896021462801633"><ele>688.0</ele><time>2026-04-29T13:35:14Z</time></trkpt><trkpt lat="43.28890209351353" lon="12.896111221449642"><ele>688.0000000000001</ele><time>2026-04-29T13:35:17Z</time></trkpt><trkpt lat="43.28892146842004" lon="12.896220925270207"><ele>688.0</ele><time>2026-04-29T13:35:20Z</time></trkpt><trkpt lat="43.28895210524132" lon="12.896314628488316"><ele>690.3333333333334</ele><time>2026-04-29T13:35:23Z</time></trkpt><trkpt lat="43.28898617086745" lon="12.896400415236222"><ele>692.6666666666667</ele><time>2026-04-29T13:35:26Z</time></trkpt><trkpt lat="43.28901826058061" lon="12.8965141870175"><ele>695.0</ele><time>2026-04-29T13:35:28.999Z</time></trkpt><trkpt lat="43.28903985798695" lon="12.896610867128638"><ele>697.3333333333334</ele><time>2026-04-29T13:35:31.999Z</time></trkpt><trkpt lat="43.289077417569914" lon="12.896688909814989"><ele>699.6666666666666</ele><time>2026-04-29T13:35:35Z</time></trkpt><trkpt lat="43.28910074279181" lon="12.89679518988745"><ele>702.0</ele><time>2026-04-29T13:35:38Z</time></trkpt><trkpt lat="43.289136623518466" lon="12.896894953491365"><ele>703.1666666666666</ele><time>2026-04-29T13:35:41Z</time></trkpt><trkpt lat="43.289163141848846" lon="12.896984944965341"><ele>704.3333333333334</ele><time>2026-04-29T13:35:44Z</time></trkpt><trkpt lat="43.289191387423" lon="12.897080944208692"><ele>705.5</ele><time>2026-04-29T13:35:47Z</time></trkpt><trkpt lat="43.28922666264754" lon="12.897170094706418"><ele>706.6666666666667</ele><time>2026-04-29T13:35:50Z</time></trkpt><trkpt lat="43.289265742844826" lon="12.89727154064379"><ele>707.8333333333334</ele><time>2026-04-29T13:35:53Z</time></trkpt><trkpt lat="43.28929823047297" lon="12.897374337881104"><ele>709.0</ele><time>2026-04-29T13:35:56Z</time></trkpt><trkpt lat="43.289323191484314" lon="12.897471439387644"><ele>709.0</ele><time>2026-04-29T13:35:59Z</time></trkpt><trkpt lat="43.289319523885695" lon="12.897584824239427"><ele>709.0</ele><time>2026-04-29T13:36:02Z</time></trkpt><trkpt lat="43.28928413348234" lon="12.897682388284775"><ele>709.0</ele><time>2026-04-29T13:36:05Z</time></trkpt><trkpt lat="43.289246518940594" lon="12.897781709542818"><ele>709.0</ele><time>2026-04-29T13:36:08Z</time></trkpt><trkpt lat="43.28921560912417" lon="12.897884464153163"><ele>709.0</ele><time>2026-04-29T13:36:11Z</time></trkpt><trkpt lat="43.2892132971779" lon="12.897984727332261"><ele>709.0</ele><time>2026-04-29T13:36:14Z</time></trkpt><trkpt lat="43.289192819019625" lon="12.89808967200217"><ele>708.1666666666667</ele><time>2026-04-29T13:36:17Z</time></trkpt><trkpt lat="43.28919948873336" lon="12.898181565467462"><ele>707.3333333333334</ele><time>2026-04-29T13:36:19Z</time></trkpt><trkpt lat="43.289199973165005" lon="12.898289516644189"><ele>706.5</ele><time>2026-04-29T13:36:22Z</time></trkpt><trkpt lat="43.28913563262412" lon="12.89836674336923"><ele>705.6666666666666</ele><time>2026-04-29T13:36:24Z</time></trkpt><trkpt lat="43.28907528951663" lon="12.89839664462603"><ele>704.8333333333333</ele><time>2026-04-29T13:36:26Z</time></trkpt><trkpt lat="43.28901949906986" lon="12.898461549322475"><ele>704.0</ele><time>2026-04-29T13:36:28Z</time></trkpt><trkpt lat="43.28894704348455" lon="12.898523378272731"><ele>703.6666666666666</ele><time>2026-04-29T13:36:31Z</time></trkpt><trkpt lat="43.288878950206374" lon="12.89856628522571"><ele>703.3333333333333</ele><time>2026-04-29T13:36:34Z</time></trkpt><trkpt lat="43.2888186534284" lon="12.898624776130138"><ele>703.0</ele><time>2026-04-29T13:36:37Z</time></trkpt><trkpt lat="43.288741371248804" lon="12.898682828623214"><ele>702.6666666666666</ele><time>2026-04-29T13:36:40Z</time></trkpt><trkpt lat="43.288672325978986" lon="12.898705067513266"><ele>702.3333333333334</ele><time>2026-04-29T13:36:43Z</time></trkpt><trkpt lat="43.28859434525447" lon="12.898730154093773"><ele>702.0</ele><time>2026-04-29T13:36:48Z</time></trkpt><trkpt lat="43.28853168758952" lon="12.898773185078491"><ele>702.0</ele><time>2026-04-29T13:36:50Z</time></trkpt><trkpt lat="43.28844076199539" lon="12.898846352092118"><ele>702.0</ele><time>2026-04-29T13:36:52Z</time></trkpt><trkpt lat="43.288329203572744" lon="12.898913677468888"><ele>702.0</ele><time>2026-04-29T13:36:55Z</time></trkpt><trkpt lat="43.288172920004136" lon="12.899102082683912"><ele>702.0</ele><time>2026-04-29T13:36:57Z</time></trkpt><trkpt lat="43.28812326489766" lon="12.899255773840618"><ele>701.5</ele><time>2026-04-29T13:36:59Z</time></trkpt><trkpt lat="43.288115998070175" lon="12.899354949717353"><ele>701.0</ele><time>2026-04-29T13:37:00Z</time></trkpt><trkpt lat="43.28813411737961" lon="12.899489022602484"><ele>700.5</ele><time>2026-04-29T13:37:02Z</time></trkpt><trkpt lat="43.2881386733699" lon="12.899583941926867"><ele>700.0</ele><time>2026-04-29T13:37:04Z</time></trkpt><trkpt lat="43.28815021267422" lon="12.899687758794768"><ele>699.5</ele><time>2026-04-29T13:37:09Z</time></trkpt><trkpt lat="43.28818369972239" lon="12.899773956246158"><ele>699.0</ele><time>2026-04-29T13:37:13Z</time></trkpt><trkpt lat="43.28821318759007" lon="12.899852366078754"><ele>699.0</ele><time>2026-04-29T13:37:17Z</time></trkpt><trkpt lat="43.288255064861104" lon="12.8999236040783"><ele>699.0</ele><time>2026-04-29T13:37:39.999Z</time></trkpt><trkpt lat="43.288225781998456" lon="12.900015562745036"><ele>699.0</ele><time>2026-04-29T13:38:41Z</time></trkpt><trkpt lat="43.288219669031946" lon="12.900127679881292"><ele>699.0</ele><time>2026-04-29T13:38:45Z</time></trkpt><trkpt lat="43.288214893790055" lon="12.900231780530216"><ele>699.0</ele><time>2026-04-29T13:38:49Z</time></trkpt><trkpt lat="43.288216255858465" lon="12.900321353735382"><ele>699.0</ele><time>2026-04-29T13:38:52Z</time></trkpt><trkpt lat="43.28821895243761" lon="12.900410600549296"><ele>699.0</ele><time>2026-04-29T13:38:55Z</time></trkpt><trkpt lat="43.28821362603746" lon="12.900513635932397"><ele>697.6666666666666</ele><time>2026-04-29T13:38:58Z</time></trkpt><trkpt lat="43.28820228619899" lon="12.900621385220992"><ele>696.3333333333334</ele><time>2026-04-29T13:39:02Z</time></trkpt><trkpt lat="43.28818353329805" lon="12.900719205709057"><ele>695.0</ele><time>2026-04-29T13:39:05Z</time></trkpt><trkpt lat="43.288162805989266" lon="12.900818594141635"><ele>693.6666666666667</ele><time>2026-04-29T13:39:09Z</time></trkpt><trkpt lat="43.28813425959664" lon="12.900921856584958"><ele>692.3333333333334</ele><time>2026-04-29T13:39:12Z</time></trkpt><trkpt lat="43.28807682087789" lon="12.901011921373668"><ele>691.0</ele><time>2026-04-29T13:39:14Z</time></trkpt><trkpt lat="43.28799641654475" lon="12.901082187234774"><ele>694.8</ele><time>2026-04-29T13:39:16Z</time></trkpt><trkpt lat="43.287914609962634" lon="12.901201310500213"><ele>698.5999999999999</ele><time>2026-04-29T13:39:18Z</time></trkpt><trkpt lat="43.287809560435676" lon="12.901334177426854"><ele>702.4</ele><time>2026-04-29T13:39:20Z</time></trkpt><trkpt lat="43.28776676208068" lon="12.901431755607836"><ele>706.2</ele><time>2026-04-29T13:39:21Z</time></trkpt><trkpt lat="43.28771604799257" lon="12.901516763143075"><ele>710.0</ele><time>2026-04-29T13:39:22Z</time></trkpt><trkpt lat="43.28767962145688" lon="12.90159188065108"><ele>710.0</ele><time>2026-04-29T13:39:22.999Z</time></trkpt><trkpt lat="43.28763428150459" lon="12.901651974034936"><ele>710.0</ele><time>2026-04-29T13:39:23.999Z</time></trkpt><trkpt lat="43.2875897915468" lon="12.901745026784333"><ele>710.0</ele><time>2026-04-29T13:39:24.999Z</time></trkpt><trkpt lat="43.287561220270945" lon="12.90183613506759"><ele>710.0</ele><time>2026-04-29T13:39:25.999Z</time></trkpt><trkpt lat="43.28752819273693" lon="12.901921717179212"><ele>710.0</ele><time>2026-04-29T13:39:26.999Z</time></trkpt><trkpt lat="43.28747998371725" lon="12.902008512984022"><ele>710.0</ele><time>2026-04-29T13:39:27.999Z</time></trkpt><trkpt lat="43.28744936226095" lon="12.902115517560068"><ele>710.5</ele><time>2026-04-29T13:39:28.999Z</time></trkpt><trkpt lat="43.28740902679213" lon="12.90221680878884"><ele>711.0</ele><time>2026-04-29T13:39:29.999Z</time></trkpt><trkpt lat="43.28737690115551" lon="12.902315388251353"><ele>711.5</ele><time>2026-04-29T13:39:30.999Z</time></trkpt><trkpt lat="43.28734286262925" lon="12.9024200595119"><ele>712.0</ele><time>2026-04-29T13:39:31.999Z</time></trkpt><trkpt lat="43.28731675648806" lon="12.902527517644838"><ele>712.5</ele><time>2026-04-29T13:39:32.999Z</time></trkpt><trkpt lat="43.28728907746628" lon="12.902629663827884"><ele>713.0</ele><time>2026-04-29T13:39:33.999Z</time></trkpt><trkpt lat="43.28723583941285" lon="12.90272609696919"><ele>713.0</ele><time>2026-04-29T13:39:34.999Z</time></trkpt><trkpt lat="43.28719343844992" lon="12.902821706496443"><ele>713.0</ele><time>2026-04-29T13:39:35.999Z</time></trkpt><trkpt lat="43.28716173240691" lon="12.902924168079116"><ele>713.0</ele><time>2026-04-29T13:39:36.999Z</time></trkpt><trkpt lat="43.28714896626343" lon="12.903073429001813"><ele>713.0</ele><time>2026-04-29T13:39:38.999Z</time></trkpt><trkpt lat="43.28709784802716" lon="12.9032273830203"><ele>713.0</ele><time>2026-04-29T13:39:40.999Z</time></trkpt><trkpt lat="43.28706254964279" lon="12.903322618756809"><ele>713.4</ele><time>2026-04-29T13:39:41.999Z</time></trkpt><trkpt lat="43.28699101652406" lon="12.903512584261794"><ele>713.8</ele><time>2026-04-29T13:39:43.999Z</time></trkpt><trkpt lat="43.2869594175317" lon="12.903614796066048"><ele>714.2</ele><time>2026-04-29T13:39:44.999Z</time></trkpt><trkpt lat="43.286949912526296" lon="12.903719019899999"><ele>714.6</ele><time>2026-04-29T13:39:45.999Z</time></trkpt><trkpt lat="43.28694353959049" lon="12.903822522122892"><ele>715.0</ele><time>2026-04-29T13:39:47Z</time></trkpt><trkpt lat="43.28695511612822" lon="12.903911422396892"><ele>715.0</ele><time>2026-04-29T13:39:48Z</time></trkpt><trkpt lat="43.28703329950869" lon="12.904048483505951"><ele>715.0</ele><time>2026-04-29T13:39:50Z</time></trkpt><trkpt lat="43.287089750874784" lon="12.904098972511093"><ele>715.0</ele><time>2026-04-29T13:39:53Z</time></trkpt><trkpt lat="43.287141663847095" lon="12.904199299744997"><ele>715.0</ele><time>2026-04-29T13:39:57Z</time></trkpt><trkpt lat="43.28717545258245" lon="12.904274930700822"><ele>715.0</ele><time>2026-04-29T13:40:00Z</time></trkpt><trkpt lat="43.287249792687014" lon="12.90433998174921"><ele>715.0</ele><time>2026-04-29T13:40:03Z</time></trkpt><trkpt lat="43.28729844283785" lon="12.904400339175325"><ele>713.0</ele><time>2026-04-29T13:40:06Z</time></trkpt><trkpt lat="43.28736732199381" lon="12.904454055536025"><ele>711.0</ele><time>2026-04-29T13:40:09Z</time></trkpt><trkpt lat="43.28743818947324" lon="12.904505004187298"><ele>709.0</ele><time>2026-04-29T13:40:12Z</time></trkpt><trkpt lat="43.287509990779846" lon="12.904547476047004"><ele>707.0</ele><time>2026-04-29T13:40:15Z</time></trkpt><trkpt lat="43.28758528352485" lon="12.904601273553515"><ele>705.0</ele><time>2026-04-29T13:40:18Z</time></trkpt><trkpt lat="43.28766471683664" lon="12.904652905386062"><ele>703.0</ele><time>2026-04-29T13:40:21Z</time></trkpt><trkpt lat="43.287733962760086" lon="12.904710966979527"><ele>703.0</ele><time>2026-04-29T13:40:24Z</time></trkpt><trkpt lat="43.28779988810211" lon="12.904773429529333"><ele>703.0</ele><time>2026-04-29T13:40:27Z</time></trkpt><trkpt lat="43.28786860044611" lon="12.904830352437278"><ele>703.0</ele><time>2026-04-29T13:40:30Z</time></trkpt><trkpt lat="43.28792925849837" lon="12.90490267753418"><ele>703.0</ele><time>2026-04-29T13:40:34Z</time></trkpt><trkpt lat="43.28799291675267" lon="12.904981588147077"><ele>703.0</ele><time>2026-04-29T13:40:37Z</time></trkpt><trkpt lat="43.288048812731674" lon="12.905049617876813"><ele>703.0</ele><time>2026-04-29T13:40:40Z</time></trkpt><trkpt lat="43.288098688714044" lon="12.905123959584554"><ele>703.8</ele><time>2026-04-29T13:40:43Z</time></trkpt><trkpt lat="43.28817656766903" lon="12.905207003455638"><ele>704.5999999999999</ele><time>2026-04-29T13:40:47Z</time></trkpt><trkpt lat="43.288262236277085" lon="12.90525622284396"><ele>705.4000000000001</ele><time>2026-04-29T13:40:49Z</time></trkpt><trkpt lat="43.28836532528976" lon="12.905345338953248"><ele>706.2</ele><time>2026-04-29T13:40:51Z</time></trkpt><trkpt lat="43.28848752120261" lon="12.905396476442638"><ele>707.0</ele><time>2026-04-29T13:40:53Z</time></trkpt><trkpt lat="43.288557661848934" lon="12.905440800841701"><ele>707.0</ele><time>2026-04-29T13:40:54Z</time></trkpt><trkpt lat="43.28861748097647" lon="12.905482670454393"><ele>707.0</ele><time>2026-04-29T13:40:55Z</time></trkpt><trkpt lat="43.28868494740599" lon="12.905527450578127"><ele>707.0</ele><time>2026-04-29T13:40:56Z</time></trkpt><trkpt lat="43.288771541902705" lon="12.905587898835368"><ele>707.0</ele><time>2026-04-29T13:40:57Z</time></trkpt><trkpt lat="43.28884725294582" lon="12.905627719612543"><ele>707.0</ele><time>2026-04-29T13:40:58Z</time></trkpt><trkpt lat="43.28891856018883" lon="12.905664809696408"><ele>707.0</ele><time>2026-04-29T13:40:59Z</time></trkpt><trkpt lat="43.28899197905118" lon="12.905730903560363"><ele>707.0</ele><time>2026-04-29T13:41:00Z</time></trkpt><trkpt lat="43.28907016107032" lon="12.905784879716744"><ele>707.0</ele><time>2026-04-29T13:41:01Z</time></trkpt><trkpt lat="43.28912832674377" lon="12.905856927070715"><ele>707.0</ele><time>2026-04-29T13:41:02Z</time></trkpt><trkpt lat="43.28918525127404" lon="12.905919582093773"><ele>707.0</ele><time>2026-04-29T13:41:03Z</time></trkpt><trkpt lat="43.28926105678878" lon="12.905981146756949"><ele>707.0</ele><time>2026-04-29T13:41:04Z</time></trkpt><trkpt lat="43.28931264547915" lon="12.906035455953667"><ele>707.0</ele><time>2026-04-29T13:41:05Z</time></trkpt><trkpt lat="43.28939121693866" lon="12.906131599277375"><ele>707.0</ele><time>2026-04-29T13:41:07Z</time></trkpt><trkpt lat="43.28945521050018" lon="12.906199395087873"><ele>707.0</ele><time>2026-04-29T13:41:09Z</time></trkpt><trkpt lat="43.28952752527553" lon="12.906260699687394"><ele>707.0</ele><time>2026-04-29T13:41:11Z</time></trkpt><trkpt lat="43.28958938339517" lon="12.906319742667819"><ele>707.0</ele><time>2026-04-29T13:41:13Z</time></trkpt><trkpt lat="43.28963534327217" lon="12.906381699040399"><ele>707.0</ele><time>2026-04-29T13:41:16Z</time></trkpt><trkpt lat="43.289701029735475" lon="12.906444438076232"><ele>707.0</ele><time>2026-04-29T13:41:20Z</time></trkpt><trkpt lat="43.28976114718901" lon="12.906498204834595"><ele>707.3333333333333</ele><time>2026-04-29T13:41:23Z</time></trkpt><trkpt lat="43.28983171730334" lon="12.90657092339528"><ele>707.6666666666666</ele><time>2026-04-29T13:41:26Z</time></trkpt><trkpt lat="43.28989527306938" lon="12.906640442408456"><ele>708.0</ele><time>2026-04-29T13:41:29Z</time></trkpt><trkpt lat="43.289966847648685" lon="12.906694157702193"><ele>708.3333333333334</ele><time>2026-04-29T13:41:31.999Z</time></trkpt><trkpt lat="43.290029966853794" lon="12.906750508871962"><ele>708.6666666666667</ele><time>2026-04-29T13:41:33.999Z</time></trkpt><trkpt lat="43.29012904639239" lon="12.906807395230715"><ele>709.0</ele><time>2026-04-29T13:41:35.999Z</time></trkpt><trkpt lat="43.29022726917742" lon="12.906879548207135"><ele>709.0</ele><time>2026-04-29T13:41:37.999Z</time></trkpt><trkpt lat="43.290326827845675" lon="12.906939259052871"><ele>709.0</ele><time>2026-04-29T13:41:39.999Z</time></trkpt><trkpt lat="43.29043800276575" lon="12.90701023453464"><ele>709.0</ele><time>2026-04-29T13:41:41.999Z</time></trkpt><trkpt lat="43.29053797690746" lon="12.90707234954195"><ele>709.0</ele><time>2026-04-29T13:41:43.999Z</time></trkpt><trkpt lat="43.290596607021676" lon="12.907115621800427"><ele>709.0</ele><time>2026-04-29T13:41:44.999Z</time></trkpt><trkpt lat="43.290713904969074" lon="12.907230348630335"><ele>703.2</ele><time>2026-04-29T13:41:46.999Z</time></trkpt><trkpt lat="43.29083308525136" lon="12.907267293836581"><ele>697.4000000000001</ele><time>2026-04-29T13:41:48.999Z</time></trkpt><trkpt lat="43.290971498904355" lon="12.907336747892577"><ele>691.6</ele><time>2026-04-29T13:41:50.999Z</time></trkpt><trkpt lat="43.291048456006166" lon="12.907373511511114"><ele>685.8</ele><time>2026-04-29T13:41:51.999Z</time></trkpt><trkpt lat="43.291119860870005" lon="12.907418661833296"><ele>680.0</ele><time>2026-04-29T13:41:53Z</time></trkpt><trkpt lat="43.29119596366431" lon="12.907445374625235"><ele>680.0</ele><time>2026-04-29T13:41:54Z</time></trkpt><trkpt lat="43.291322304571665" lon="12.907529047102171"><ele>680.0</ele><time>2026-04-29T13:41:56Z</time></trkpt><trkpt lat="43.291396415628384" lon="12.907556250047746"><ele>680.0</ele><time>2026-04-29T13:41:57Z</time></trkpt><trkpt lat="43.29146767166789" lon="12.907596415506227"><ele>680.0</ele><time>2026-04-29T13:41:58Z</time></trkpt><trkpt lat="43.291531633466896" lon="12.907635062230764"><ele>680.0</ele><time>2026-04-29T13:41:59Z</time></trkpt><trkpt lat="43.2916118107477" lon="12.907680744288573"><ele>679.3333333333333</ele><time>2026-04-29T13:42:00Z</time></trkpt><trkpt lat="43.29168182358986" lon="12.907721173144216"><ele>678.6666666666666</ele><time>2026-04-29T13:42:01Z</time></trkpt><trkpt lat="43.29175315496872" lon="12.907767531069315"><ele>678.0</ele><time>2026-04-29T13:42:02Z</time></trkpt><trkpt lat="43.29182969357425" lon="12.907813928561955"><ele>677.3333333333334</ele><time>2026-04-29T13:42:03Z</time></trkpt><trkpt lat="43.29189366564116" lon="12.90788213588589"><ele>676.6666666666667</ele><time>2026-04-29T13:42:04Z</time></trkpt><trkpt lat="43.291963615674355" lon="12.907937058181256"><ele>676.0</ele><time>2026-04-29T13:42:05Z</time></trkpt><trkpt lat="43.29202908014576" lon="12.907987650231679"><ele>676.0</ele><time>2026-04-29T13:42:06Z</time></trkpt><trkpt lat="43.292113842194816" lon="12.908116549060233"><ele>676.0</ele><time>2026-04-29T13:42:08Z</time></trkpt><trkpt lat="43.292177871218335" lon="12.9081965607568"><ele>676.0</ele><time>2026-04-29T13:42:09Z</time></trkpt><trkpt lat="43.29223285040721" lon="12.908266862591391"><ele>676.0</ele><time>2026-04-29T13:42:10Z</time></trkpt><trkpt lat="43.29228450753972" lon="12.908320694952705"><ele>676.0</ele><time>2026-04-29T13:42:11Z</time></trkpt><trkpt lat="43.29238458606873" lon="12.908387787679533"><ele>674.5999999999999</ele><time>2026-04-29T13:42:13Z</time></trkpt><trkpt lat="43.292435046975505" lon="12.908448253984321"><ele>673.2</ele><time>2026-04-29T13:42:14Z</time></trkpt><trkpt lat="43.29250917187052" lon="12.908566290223895"><ele>671.8</ele><time>2026-04-29T13:42:16Z</time></trkpt><trkpt lat="43.292610955317755" lon="12.908669966218623"><ele>670.4000000000001</ele><time>2026-04-29T13:42:18Z</time></trkpt><trkpt lat="43.292681183453226" lon="12.908739217914798"><ele>669.0</ele><time>2026-04-29T13:42:20Z</time></trkpt><trkpt lat="43.29277822268817" lon="12.908823616482207"><ele>669.0</ele><time>2026-04-29T13:42:23Z</time></trkpt><trkpt lat="43.29284004964153" lon="12.908840035111345"><ele>669.0</ele><time>2026-04-29T13:42:24Z</time></trkpt><trkpt lat="43.2929008568785" lon="12.908887017683407"><ele>669.0</ele><time>2026-04-29T13:42:25Z</time></trkpt><trkpt lat="43.29301442343949" lon="12.908990463962823"><ele>669.0</ele><time>2026-04-29T13:42:27Z</time></trkpt><trkpt lat="43.29307863641726" lon="12.909029097026384"><ele>669.0</ele><time>2026-04-29T13:42:28Z</time></trkpt><trkpt lat="43.293134573640195" lon="12.909087929388532"><ele>669.0</ele><time>2026-04-29T13:42:29Z</time></trkpt><trkpt lat="43.2932032468148" lon="12.909140981248092"><ele>667.8333333333334</ele><time>2026-04-29T13:42:30Z</time></trkpt><trkpt lat="43.29327336359845" lon="12.909193430892046"><ele>666.6666666666666</ele><time>2026-04-29T13:42:31Z</time></trkpt><trkpt lat="43.293342966519695" lon="12.90923815090235"><ele>665.5</ele><time>2026-04-29T13:42:32Z</time></trkpt><trkpt lat="43.29341420815147" lon="12.909290278270271"><ele>664.3333333333333</ele><time>2026-04-29T13:42:33Z</time></trkpt><trkpt lat="43.29349671274276" lon="12.909352458235704"><ele>663.1666666666666</ele><time>2026-04-29T13:42:34Z</time></trkpt><trkpt lat="43.29356168876607" lon="12.909410595376007"><ele>662.0</ele><time>2026-04-29T13:42:35Z</time></trkpt><trkpt lat="43.29361269538344" lon="12.909463483090349"><ele>662.0</ele><time>2026-04-29T13:42:36Z</time></trkpt><trkpt lat="43.29367322257179" lon="12.909532444499334"><ele>662.0</ele><time>2026-04-29T13:42:37Z</time></trkpt><trkpt lat="43.293761044543885" lon="12.909563827365975"><ele>662.0</ele><time>2026-04-29T13:42:38Z</time></trkpt><trkpt lat="43.29382622045069" lon="12.90960255609002"><ele>662.0</ele><time>2026-04-29T13:42:39Z</time></trkpt><trkpt lat="43.29390043307853" lon="12.909641633656998"><ele>662.0</ele><time>2026-04-29T13:42:40Z</time></trkpt><trkpt lat="43.293965323385" lon="12.909738576527118"><ele>662.0</ele><time>2026-04-29T13:42:41Z</time></trkpt><trkpt lat="43.29407237481309" lon="12.90982299805968"><ele>658.8333333333333</ele><time>2026-04-29T13:42:43Z</time></trkpt><trkpt lat="43.29414124330564" lon="12.909862677008983"><ele>655.6666666666666</ele><time>2026-04-29T13:42:44Z</time></trkpt><trkpt lat="43.294215183427966" lon="12.909909962213089"><ele>652.5</ele><time>2026-04-29T13:42:45Z</time></trkpt><trkpt lat="43.29427082582765" lon="12.909962710168614"><ele>649.3333333333334</ele><time>2026-04-29T13:42:46Z</time></trkpt><trkpt lat="43.29433085988515" lon="12.910027884424627"><ele>646.1666666666667</ele><time>2026-04-29T13:42:47Z</time></trkpt><trkpt lat="43.294385101791896" lon="12.910092637643187"><ele>643.0</ele><time>2026-04-29T13:42:48Z</time></trkpt><trkpt lat="43.294447917866435" lon="12.91015618716898"><ele>643.0</ele><time>2026-04-29T13:42:49Z</time></trkpt><trkpt lat="43.29451840823483" lon="12.910227919925214"><ele>643.0</ele><time>2026-04-29T13:42:50Z</time></trkpt><trkpt lat="43.29458978716854" lon="12.910288426736571"><ele>643.0</ele><time>2026-04-29T13:42:51Z</time></trkpt><trkpt lat="43.294654318893876" lon="12.910360761296348"><ele>643.0</ele><time>2026-04-29T13:42:52Z</time></trkpt><trkpt lat="43.29471727700285" lon="12.910430924242347"><ele>643.0</ele><time>2026-04-29T13:42:53Z</time></trkpt><trkpt lat="43.29477036588276" lon="12.910508570596283"><ele>643.0</ele><time>2026-04-29T13:42:54Z</time></trkpt><trkpt lat="43.29482411428254" lon="12.910583068181934"><ele>640.5</ele><time>2026-04-29T13:42:55Z</time></trkpt><trkpt lat="43.29488130644367" lon="12.910650257170285"><ele>638.0</ele><time>2026-04-29T13:42:56Z</time></trkpt><trkpt lat="43.294935255503994" lon="12.9107138217218"><ele>635.5</ele><time>2026-04-29T13:42:57Z</time></trkpt><trkpt lat="43.294986985950146" lon="12.910786993461326"><ele>633.0</ele><time>2026-04-29T13:42:58Z</time></trkpt><trkpt lat="43.29502904627148" lon="12.91085539154558"><ele>630.5</ele><time>2026-04-29T13:42:59Z</time></trkpt><trkpt lat="43.295084190053686" lon="12.910957400875168"><ele>628.0</ele><time>2026-04-29T13:43:01Z</time></trkpt><trkpt lat="43.29512427025572" lon="12.911059873335718"><ele>628.0</ele><time>2026-04-29T13:43:04Z</time></trkpt><trkpt lat="43.29520808708895" lon="12.911144635822083"><ele>628.0</ele><time>2026-04-29T13:43:06Z</time></trkpt><trkpt lat="43.29530368924815" lon="12.911225693734623"><ele>628.0</ele><time>2026-04-29T13:43:08Z</time></trkpt><trkpt lat="43.29535853451154" lon="12.91127833040435"><ele>628.0</ele><time>2026-04-29T13:43:09Z</time></trkpt><trkpt lat="43.295432817698845" lon="12.911396909543365"><ele>628.0</ele><time>2026-04-29T13:43:11Z</time></trkpt><trkpt lat="43.29548475896028" lon="12.911467564119333"><ele>628.0</ele><time>2026-04-29T13:43:12Z</time></trkpt><trkpt lat="43.29556528808197" lon="12.911606587757714"><ele>628.0</ele><time>2026-04-29T13:43:14Z</time></trkpt><trkpt lat="43.29560152761796" lon="12.911686448076932"><ele>628.0</ele><time>2026-04-29T13:43:15Z</time></trkpt><trkpt lat="43.29566045092353" lon="12.911797648662455"><ele>628.0</ele><time>2026-04-29T13:43:17Z</time></trkpt><trkpt lat="43.29571411375081" lon="12.911953998079223"><ele>628.0</ele><time>2026-04-29T13:43:19Z</time></trkpt><trkpt lat="43.29574673907414" lon="12.91203093540184"><ele>624.6</ele><time>2026-04-29T13:43:20Z</time></trkpt><trkpt lat="43.29578051197705" lon="12.912106450347375"><ele>621.1999999999999</ele><time>2026-04-29T13:43:21Z</time></trkpt><trkpt lat="43.29582736321878" lon="12.912207881519503"><ele>617.8</ele><time>2026-04-29T13:43:22Z</time></trkpt><trkpt lat="43.29586160395654" lon="12.912282717814588"><ele>614.4</ele><time>2026-04-29T13:43:23Z</time></trkpt><trkpt lat="43.295868659348095" lon="12.912453611735515"><ele>611.0</ele><time>2026-04-29T13:43:25Z</time></trkpt><trkpt lat="43.295879508556936" lon="12.912617098594664"><ele>611.0</ele><time>2026-04-29T13:43:27Z</time></trkpt><trkpt lat="43.29591216123427" lon="12.912758531006519"><ele>611.0</ele><time>2026-04-29T13:43:29Z</time></trkpt><trkpt lat="43.295966891621624" lon="12.91280977171107"><ele>611.0</ele><time>2026-04-29T13:43:31Z</time></trkpt><trkpt lat="43.29596236364111" lon="12.912973156713926"><ele>611.0</ele><time>2026-04-29T13:43:32Z</time></trkpt><trkpt lat="43.29600681068161" lon="12.913106900988621"><ele>611.0</ele><time>2026-04-29T13:43:34Z</time></trkpt><trkpt lat="43.296028039488064" lon="12.913196125853725"><ele>611.0</ele><time>2026-04-29T13:43:35.999Z</time></trkpt><trkpt lat="43.29607634002529" lon="12.913253241699458"><ele>611.0</ele><time>2026-04-29T13:45:06Z</time></trkpt><trkpt lat="43.29608163513675" lon="12.913363809480147"><ele>611.0</ele><time>2026-04-29T13:45:09Z</time></trkpt><trkpt lat="43.2961136274799" lon="12.913468168318184"><ele>611.0</ele><time>2026-04-29T13:45:11Z</time></trkpt><trkpt lat="43.29616114844337" lon="12.913547220025125"><ele>611.0</ele><time>2026-04-29T13:45:27Z</time></trkpt><trkpt lat="43.29618827712606" lon="12.91363629502294"><ele>611.0</ele><time>2026-04-29T13:45:31Z</time></trkpt><trkpt lat="43.29619544550801" lon="12.91374637630998"><ele>611.8333333333333</ele><time>2026-04-29T13:45:37Z</time></trkpt><trkpt lat="43.29619856511929" lon="12.913847013408596"><ele>612.6666666666666</ele><time>2026-04-29T13:45:40Z</time></trkpt><trkpt lat="43.29621444805993" lon="12.913951000634578"><ele>613.5</ele><time>2026-04-29T13:45:43Z</time></trkpt><trkpt lat="43.29621705351645" lon="12.91407907299991"><ele>614.3333333333334</ele><time>2026-04-29T13:45:46Z</time></trkpt><trkpt lat="43.296260841459386" lon="12.914248528853953"><ele>615.1666666666667</ele><time>2026-04-29T13:45:49Z</time></trkpt><trkpt lat="43.296275960399555" lon="12.914347629089674"><ele>616.0</ele><time>2026-04-29T13:45:50.999Z</time></trkpt><trkpt lat="43.29630597809224" lon="12.914445865182605"><ele>617.2857142857143</ele><time>2026-04-29T13:45:52.999Z</time></trkpt><trkpt lat="43.29632329497033" lon="12.914544700148324"><ele>618.5714285714286</ele><time>2026-04-29T13:45:54.999Z</time></trkpt><trkpt lat="43.29632014192939" lon="12.914641967677518"><ele>619.8571428571429</ele><time>2026-04-29T13:45:56.999Z</time></trkpt><trkpt lat="43.29634209521023" lon="12.914744900617686"><ele>621.1428571428571</ele><time>2026-04-29T13:45:59.999Z</time></trkpt><trkpt lat="43.296360845793565" lon="12.914827874371438"><ele>622.4285714285714</ele><time>2026-04-29T13:46:01.999Z</time></trkpt><trkpt lat="43.296376884945666" lon="12.914944831080634"><ele>623.7142857142858</ele><time>2026-04-29T13:46:03.999Z</time></trkpt><trkpt lat="43.29638653905929" lon="12.915047869287214"><ele>625.0</ele><time>2026-04-29T13:46:07Z</time></trkpt><trkpt lat="43.29639975756247" lon="12.915143445947104"><ele>626.8333333333334</ele><time>2026-04-29T13:46:09Z</time></trkpt><trkpt lat="43.29640314047621" lon="12.915255718701612"><ele>628.6666666666667</ele><time>2026-04-29T13:46:13Z</time></trkpt><trkpt lat="43.29641073561634" lon="12.91536092040372"><ele>630.5</ele><time>2026-04-29T13:46:16Z</time></trkpt><trkpt lat="43.29642875882143" lon="12.9154759786695"><ele>632.3333333333334</ele><time>2026-04-29T13:46:17Z</time></trkpt><trkpt lat="43.29645998698508" lon="12.915571844851945"><ele>634.1666666666666</ele><time>2026-04-29T13:46:19Z</time></trkpt><trkpt lat="43.29648828529065" lon="12.915667539904605"><ele>636.0</ele><time>2026-04-29T13:46:22Z</time></trkpt><trkpt lat="43.296519228028025" lon="12.915750343650455"><ele>632.0</ele><time>2026-04-29T13:46:24Z</time></trkpt><trkpt lat="43.29657812801171" lon="12.915855844208643"><ele>628.0</ele><time>2026-04-29T13:46:26Z</time></trkpt><trkpt lat="43.296624169508114" lon="12.915956157123933"><ele>624.0</ele><time>2026-04-29T13:46:28Z</time></trkpt><trkpt lat="43.296660210787266" lon="12.916046422505989"><ele>620.0</ele><time>2026-04-29T13:46:30Z</time></trkpt><trkpt lat="43.296718854337264" lon="12.916157275763053"><ele>616.0</ele><time>2026-04-29T13:46:33Z</time></trkpt><trkpt lat="43.29675618737319" lon="12.916251512039487"><ele>612.0</ele><time>2026-04-29T13:46:36Z</time></trkpt><trkpt lat="43.29679261564283" lon="12.91633811733086"><ele>612.0</ele><time>2026-04-29T13:46:38Z</time></trkpt><trkpt lat="43.29681659526678" lon="12.916443544289983"><ele>612.0</ele><time>2026-04-29T13:46:42Z</time></trkpt><trkpt lat="43.29685663585031" lon="12.916521403069568"><ele>612.0</ele><time>2026-04-29T13:46:44Z</time></trkpt><trkpt lat="43.29689290079706" lon="12.916615503972674"><ele>612.0</ele><time>2026-04-29T13:46:47Z</time></trkpt><trkpt lat="43.29693132246104" lon="12.91674517333612"><ele>612.0</ele><time>2026-04-29T13:46:50Z</time></trkpt><trkpt lat="43.29695757220398" lon="12.91685116163934"><ele>612.0</ele><time>2026-04-29T13:46:53Z</time></trkpt><trkpt lat="43.29698908358335" lon="12.916962277761042"><ele>613.1428571428571</ele><time>2026-04-29T13:46:56Z</time></trkpt><trkpt lat="43.29703765260051" lon="12.917066051131302"><ele>614.2857142857143</ele><time>2026-04-29T13:46:58Z</time></trkpt><trkpt lat="43.297072662633425" lon="12.91713823699801"><ele>615.4285714285714</ele><time>2026-04-29T13:47:00Z</time></trkpt><trkpt lat="43.29712025125701" lon="12.917221170036074"><ele>616.5714285714286</ele><time>2026-04-29T13:47:03Z</time></trkpt><trkpt lat="43.29714533657281" lon="12.917314078078642"><ele>617.7142857142857</ele><time>2026-04-29T13:47:06Z</time></trkpt><trkpt lat="43.29716675101007" lon="12.917405051111455"><ele>618.8571428571429</ele><time>2026-04-29T13:47:11Z</time></trkpt><trkpt lat="43.29720028049953" lon="12.917478760652385"><ele>620.0</ele><time>2026-04-29T13:47:17Z</time></trkpt><trkpt lat="43.297249701499645" lon="12.917556297489845"><ele>615.1666666666666</ele><time>2026-04-29T13:47:22Z</time></trkpt><trkpt lat="43.29734379501322" lon="12.91761438936245"><ele>610.3333333333333</ele><time>2026-04-29T13:47:25Z</time></trkpt><trkpt lat="43.29739000372785" lon="12.917698507199168"><ele>605.5</ele><time>2026-04-29T13:47:27Z</time></trkpt><trkpt lat="43.29745353798902" lon="12.91776155062602"><ele>600.6666666666666</ele><time>2026-04-29T13:47:29Z</time></trkpt><trkpt lat="43.297511337631235" lon="12.917812383141786"><ele>595.8333333333334</ele><time>2026-04-29T13:47:32Z</time></trkpt><trkpt lat="43.29757292134274" lon="12.917903617360773"><ele>591.0</ele><time>2026-04-29T13:47:34Z</time></trkpt><trkpt lat="43.297625724212324" lon="12.91798358193393"><ele>591.0</ele><time>2026-04-29T13:47:36Z</time></trkpt><trkpt lat="43.29767555489479" lon="12.918095537917038"><ele>591.0</ele><time>2026-04-29T13:47:39Z</time></trkpt><trkpt lat="43.297744228948694" lon="12.91818425666696"><ele>591.0</ele><time>2026-04-29T13:47:41Z</time></trkpt><trkpt lat="43.29779415401538" lon="12.918275815846567"><ele>591.0</ele><time>2026-04-29T13:47:43Z</time></trkpt><trkpt lat="43.29783150451589" lon="12.918365151346213"><ele>591.0</ele><time>2026-04-29T13:47:45Z</time></trkpt><trkpt lat="43.29787818705627" lon="12.918449609177266"><ele>591.0</ele><time>2026-04-29T13:47:47Z</time></trkpt><trkpt lat="43.29790152847142" lon="12.918530810302453"><ele>590.6666666666666</ele><time>2026-04-29T13:47:49Z</time></trkpt><trkpt lat="43.297925967238065" lon="12.918651029327453"><ele>590.3333333333334</ele><time>2026-04-29T13:47:52Z</time></trkpt><trkpt lat="43.29795831216598" lon="12.918769970578056"><ele>590.0</ele><time>2026-04-29T13:47:54Z</time></trkpt><trkpt lat="43.298023649885856" lon="12.91880960730271"><ele>589.6666666666667</ele><time>2026-04-29T13:48:04.999Z</time></trkpt><trkpt lat="43.29809079004864" lon="12.918730047699395"><ele>589.3333333333334</ele><time>2026-04-29T13:48:07.999Z</time></trkpt><trkpt lat="43.298156822064776" lon="12.91865152724665"><ele>589.0</ele><time>2026-04-29T13:48:11Z</time></trkpt><trkpt lat="43.29822297743014" lon="12.918608754508817"><ele>583.3333333333334</ele><time>2026-04-29T13:48:13Z</time></trkpt><trkpt lat="43.298299012536624" lon="12.918518249803151"><ele>577.6666666666667</ele><time>2026-04-29T13:48:16Z</time></trkpt><trkpt lat="43.29838690001528" lon="12.91847741188376"><ele>572.0</ele><time>2026-04-29T13:48:18Z</time></trkpt><trkpt lat="43.29845668044897" lon="12.918424970622864"><ele>566.3333333333334</ele><time>2026-04-29T13:48:21Z</time></trkpt><trkpt lat="43.29853100217959" lon="12.918409803929485"><ele>560.6666666666666</ele><time>2026-04-29T13:48:23Z</time></trkpt><trkpt lat="43.298605263526156" lon="12.91836048153896"><ele>555.0</ele><time>2026-04-29T13:48:25Z</time></trkpt><trkpt lat="43.29866976131952" lon="12.918334592634418"><ele>555.0</ele><time>2026-04-29T13:48:27Z</time></trkpt><trkpt lat="43.29873931861863" lon="12.918308832789931"><ele>555.0</ele><time>2026-04-29T13:48:39Z</time></trkpt><trkpt lat="43.29880081031108" lon="12.918228984380235"><ele>555.0</ele><time>2026-04-29T13:48:42Z</time></trkpt><trkpt lat="43.2988135731631" lon="12.918128119016723"><ele>555.0</ele><time>2026-04-29T13:48:45Z</time></trkpt><trkpt lat="43.298773704638336" lon="12.9180136865162"><ele>555.0</ele><time>2026-04-29T13:48:47.999Z</time></trkpt><trkpt lat="43.29880567937425" lon="12.917930729492953"><ele>555.0</ele><time>2026-04-29T13:48:51.999Z</time></trkpt><trkpt lat="43.2988726248214" lon="12.917978609489012"><ele>550.1666666666666</ele><time>2026-04-29T13:48:54.999Z</time></trkpt><trkpt lat="43.29895903368444" lon="12.918010118937994"><ele>545.3333333333334</ele><time>2026-04-29T13:49:07.999Z</time></trkpt><trkpt lat="43.29902808890348" lon="12.91805312714202"><ele>540.5</ele><time>2026-04-29T13:49:09.999Z</time></trkpt><trkpt lat="43.299098185202325" lon="12.918113345468267"><ele>535.6666666666667</ele><time>2026-04-29T13:49:11.999Z</time></trkpt><trkpt lat="43.29920347195516" lon="12.918179901846292"><ele>530.8333333333334</ele><time>2026-04-29T13:49:14.999Z</time></trkpt><trkpt lat="43.299262174129495" lon="12.918225062739912"><ele>526.0</ele><time>2026-04-29T13:49:16.999Z</time></trkpt><trkpt lat="43.29932014774364" lon="12.918273883071697"><ele>526.0</ele><time>2026-04-29T13:49:17.999Z</time></trkpt><trkpt lat="43.29939485898813" lon="12.918337700583615"><ele>526.0</ele><time>2026-04-29T13:49:19.999Z</time></trkpt><trkpt lat="43.29948945420869" lon="12.918403224954094"><ele>526.0</ele><time>2026-04-29T13:49:22.999Z</time></trkpt><trkpt lat="43.299548101976" lon="12.918481270987797"><ele>526.0</ele><time>2026-04-29T13:49:24.999Z</time></trkpt><trkpt lat="43.299595488104146" lon="12.918546036294387"><ele>526.0</ele><time>2026-04-29T13:49:27.999Z</time></trkpt><trkpt lat="43.29962467949312" lon="12.918645348724654"><ele>526.0</ele><time>2026-04-29T13:49:30.999Z</time></trkpt><trkpt lat="43.29967168385015" lon="12.918738752078594"><ele>526.0</ele><time>2026-04-29T13:49:32.999Z</time></trkpt><trkpt lat="43.29972547862963" lon="12.918824423110316"><ele>526.0</ele><time>2026-04-29T13:49:34.999Z</time></trkpt><trkpt lat="43.29977304174094" lon="12.918909443181098"><ele>526.0</ele><time>2026-04-29T13:49:36.999Z</time></trkpt><trkpt lat="43.2998456204083" lon="12.919045913720629"><ele>526.0</ele><time>2026-04-29T13:49:38.999Z</time></trkpt><trkpt lat="43.29989169438082" lon="12.919135380384855"><ele>526.0</ele><time>2026-04-29T13:49:40.999Z</time></trkpt><trkpt lat="43.29993956375599" lon="12.919239162482356"><ele>520.3333333333334</ele><time>2026-04-29T13:49:42.999Z</time></trkpt><trkpt lat="43.299982403965885" lon="12.919345971078556"><ele>514.6666666666667</ele><time>2026-04-29T13:49:44.999Z</time></trkpt><trkpt lat="43.30003724638661" lon="12.91945045530639"><ele>509.0</ele><time>2026-04-29T13:49:46.999Z</time></trkpt><trkpt lat="43.300068018261946" lon="12.91956730877153"><ele>503.33333333333337</ele><time>2026-04-29T13:49:48.999Z</time></trkpt><trkpt lat="43.30010714388237" lon="12.91966450264277"><ele>497.6666666666667</ele><time>2026-04-29T13:49:51.999Z</time></trkpt><trkpt lat="43.30014942616471" lon="12.91976934060745"><ele>492.0</ele><time>2026-04-29T13:50:28Z</time></trkpt><trkpt lat="43.30021142307513" lon="12.919859396713782"><ele>492.00000000000006</ele><time>2026-04-29T13:50:31Z</time></trkpt><trkpt lat="43.300245662742505" lon="12.919943090110287"><ele>492.0</ele><time>2026-04-29T13:50:33Z</time></trkpt><trkpt lat="43.300284932008545" lon="12.920020942386879"><ele>492.00000000000006</ele><time>2026-04-29T13:50:35Z</time></trkpt><trkpt lat="43.300333163943066" lon="12.920105489994949"><ele>492.00000000000006</ele><time>2026-04-29T13:50:37Z</time></trkpt><trkpt lat="43.3003807680476" lon="12.920177442951585"><ele>492.0</ele><time>2026-04-29T13:50:39Z</time></trkpt><trkpt lat="43.30043626883287" lon="12.920238600279488"><ele>492.00000000000006</ele><time>2026-04-29T13:50:41Z</time></trkpt><trkpt lat="43.300495175270804" lon="12.920310484957167"><ele>492.00000000000006</ele><time>2026-04-29T13:50:43Z</time></trkpt><trkpt lat="43.300566748643" lon="12.920376703305067"><ele>488.3333333333333</ele><time>2026-04-29T13:50:45Z</time></trkpt><trkpt lat="43.30064150912493" lon="12.920453051590535"><ele>484.66666666666663</ele><time>2026-04-29T13:50:47Z</time></trkpt><trkpt lat="43.300719325266755" lon="12.920526373298054"><ele>481.0</ele><time>2026-04-29T13:50:49Z</time></trkpt><trkpt lat="43.30079717820814" lon="12.920590165579528"><ele>477.3333333333333</ele><time>2026-04-29T13:50:51Z</time></trkpt><trkpt lat="43.300867650324435" lon="12.920644106057665"><ele>473.66666666666663</ele><time>2026-04-29T13:50:53Z</time></trkpt><trkpt lat="43.300933287509466" lon="12.920701435458021"><ele>470.0</ele><time>2026-04-29T13:51:01Z</time></trkpt><trkpt lat="43.30099918302508" lon="12.92074123448821"><ele>469.99999999999994</ele><time>2026-04-29T13:51:03Z</time></trkpt><trkpt lat="43.301068121496904" lon="12.920772623284844"><ele>470.0</ele><time>2026-04-29T13:51:05Z</time></trkpt><trkpt lat="43.30112535494254" lon="12.920809851060483"><ele>470.0</ele><time>2026-04-29T13:51:06Z</time></trkpt><trkpt lat="43.30122122998425" lon="12.920858216766437"><ele>470.0</ele><time>2026-04-29T13:51:08Z</time></trkpt><trkpt lat="43.30129922632761" lon="12.920858472179212"><ele>469.99999999999994</ele><time>2026-04-29T13:51:10Z</time></trkpt><trkpt lat="43.30140569897271" lon="12.920878416639606"><ele>470.0</ele><time>2026-04-29T13:51:12Z</time></trkpt><trkpt lat="43.30151476908041" lon="12.920946852873817"><ele>464.8</ele><time>2026-04-29T13:51:14Z</time></trkpt><trkpt lat="43.30161571316249" lon="12.921023372419041"><ele>459.6</ele><time>2026-04-29T13:51:16Z</time></trkpt><trkpt lat="43.30169638327581" lon="12.921073314575763"><ele>454.4</ele><time>2026-04-29T13:51:18Z</time></trkpt><trkpt lat="43.301793361359195" lon="12.921137893303127"><ele>449.2</ele><time>2026-04-29T13:51:20Z</time></trkpt><trkpt lat="43.301896969607554" lon="12.921206050780276"><ele>444.0</ele><time>2026-04-29T13:51:22Z</time></trkpt><trkpt lat="43.302012183359764" lon="12.921279815863068"><ele>444.0</ele><time>2026-04-29T13:51:24Z</time></trkpt><trkpt lat="43.302127470384065" lon="12.921347443024832"><ele>444.0</ele><time>2026-04-29T13:51:26Z</time></trkpt><trkpt lat="43.302239320978316" lon="12.921410648192513"><ele>444.0</ele><time>2026-04-29T13:51:28Z</time></trkpt><trkpt lat="43.30233585929815" lon="12.92150236394235"><ele>444.0</ele><time>2026-04-29T13:51:30Z</time></trkpt><trkpt lat="43.30240117284789" lon="12.921526605956991"><ele>444.0</ele><time>2026-04-29T13:51:31Z</time></trkpt><trkpt lat="43.302482725836484" lon="12.92158341498507"><ele>444.2</ele><time>2026-04-29T13:51:33Z</time></trkpt><trkpt lat="43.3025763641082" lon="12.92164573428451"><ele>444.4</ele><time>2026-04-29T13:51:35Z</time></trkpt><trkpt lat="43.30266019911932" lon="12.921684449747303"><ele>444.6</ele><time>2026-04-29T13:51:37Z</time></trkpt><trkpt lat="43.302746040374096" lon="12.921757111366508"><ele>444.8</ele><time>2026-04-29T13:51:39Z</time></trkpt><trkpt lat="43.30283547828598" lon="12.921817007346375"><ele>445.0</ele><time>2026-04-29T13:51:41Z</time></trkpt><trkpt lat="43.30289391246286" lon="12.921862471717882"><ele>441.83333333333337</ele><time>2026-04-29T13:51:44Z</time></trkpt><trkpt lat="43.30296622497798" lon="12.921922886310645"><ele>438.6666666666667</ele><time>2026-04-29T13:51:52Z</time></trkpt><trkpt lat="43.30303772972612" lon="12.92199029894002"><ele>435.5</ele><time>2026-04-29T13:51:54Z</time></trkpt><trkpt lat="43.30312714375279" lon="12.922079803103587"><ele>432.33333333333337</ele><time>2026-04-29T13:51:56Z</time></trkpt><trkpt lat="43.30319636707663" lon="12.922153650017073"><ele>429.1666666666667</ele><time>2026-04-29T13:51:58Z</time></trkpt><trkpt lat="43.30325290640162" lon="12.922217453380995"><ele>426.0</ele><time>2026-04-29T13:51:59Z</time></trkpt><trkpt lat="43.30331075787026" lon="12.92226335930725"><ele>425.20000000000005</ele><time>2026-04-29T13:51:59.999Z</time></trkpt><trkpt lat="43.30336043927303" lon="12.922319269640594"><ele>424.40000000000003</ele><time>2026-04-29T13:52:00.999Z</time></trkpt><trkpt lat="43.30341855701808" lon="12.922442924723706"><ele>423.6</ele><time>2026-04-29T13:52:02.999Z</time></trkpt><trkpt lat="43.30348915626441" lon="12.922573896704389"><ele>422.8</ele><time>2026-04-29T13:52:04.999Z</time></trkpt><trkpt lat="43.30353837402648" lon="12.922709529715284"><ele>422.0</ele><time>2026-04-29T13:52:06.999Z</time></trkpt><trkpt lat="43.3035618340472" lon="12.922876183452896"><ele>419.8333333333333</ele><time>2026-04-29T13:52:08.999Z</time></trkpt><trkpt lat="43.30357076079397" lon="12.922967685147677"><ele>417.66666666666663</ele><time>2026-04-29T13:52:09.999Z</time></trkpt><trkpt lat="43.303613666774744" lon="12.923093548203251"><ele>415.5</ele><time>2026-04-29T13:52:11.999Z</time></trkpt><trkpt lat="43.30364481889927" lon="12.923190375264547"><ele>413.33333333333337</ele><time>2026-04-29T13:52:13.999Z</time></trkpt><trkpt lat="43.30367692850987" lon="12.923292332619866"><ele>411.1666666666667</ele><time>2026-04-29T13:52:15.999Z</time></trkpt><trkpt lat="43.30378077233082" lon="12.923255992767624"><ele>409.0</ele><time>2026-04-29T13:52:16.999Z</time></trkpt><trkpt lat="43.30389221190125" lon="12.923270525710809"><ele>408.0</ele><time>2026-04-29T13:52:18.999Z</time></trkpt><trkpt lat="43.30396557064778" lon="12.923254203163983"><ele>407.0</ele><time>2026-04-29T13:52:19.999Z</time></trkpt><trkpt lat="43.30408449084898" lon="12.923209636153752"><ele>406.0</ele><time>2026-04-29T13:52:21.999Z</time></trkpt><trkpt lat="43.30418264708927" lon="12.923143514635639"><ele>405.0</ele><time>2026-04-29T13:52:24Z</time></trkpt><trkpt lat="43.30423036170403" lon="12.92306209653446"><ele>404.0</ele><time>2026-04-29T13:52:25Z</time></trkpt><trkpt lat="43.30431883699153" lon="12.922947958763368"><ele>403.99999999999994</ele><time>2026-04-29T13:52:27Z</time></trkpt><trkpt lat="43.304380178788925" lon="12.922905867910023"><ele>404.0</ele><time>2026-04-29T13:52:28Z</time></trkpt><trkpt lat="43.304430044855685" lon="12.922852697463412"><ele>404.0</ele><time>2026-04-29T13:52:29Z</time></trkpt><trkpt lat="43.304482534054266" lon="12.922804125713673"><ele>404.0</ele><time>2026-04-29T13:52:30Z</time></trkpt><trkpt lat="43.30458453953635" lon="12.92277529306303"><ele>403.99999999999994</ele><time>2026-04-29T13:52:32Z</time></trkpt><trkpt lat="43.30469092293234" lon="12.922758464416113"><ele>404.0</ele><time>2026-04-29T13:52:34Z</time></trkpt><trkpt lat="43.30479602272171" lon="12.922731470828301"><ele>402.6</ele><time>2026-04-29T13:52:36Z</time></trkpt><trkpt lat="43.304893091533046" lon="12.922717549217575"><ele>401.2</ele><time>2026-04-29T13:52:38Z</time></trkpt><trkpt lat="43.30498194946502" lon="12.92271716538552"><ele>399.8</ele><time>2026-04-29T13:52:40Z</time></trkpt><trkpt lat="43.305072234241365" lon="12.922696490702043"><ele>398.40000000000003</ele><time>2026-04-29T13:52:42Z</time></trkpt><trkpt lat="43.30509784796222" lon="12.922542664495591"><ele>397.0</ele><time>2026-04-29T13:52:47Z</time></trkpt><trkpt lat="43.30504494503891" lon="12.922487454829454"><ele>397.00000000000006</ele><time>2026-04-29T13:52:50Z</time></trkpt><trkpt lat="43.304979169608764" lon="12.922428704798815"><ele>397.0</ele><time>2026-04-29T13:52:53Z</time></trkpt><trkpt lat="43.30491605218592" lon="12.922391154022904"><ele>397.0</ele><time>2026-04-29T13:52:56Z</time></trkpt><trkpt lat="43.304832817055704" lon="12.92236333551448"><ele>397.0</ele><time>2026-04-29T13:53:00Z</time></trkpt><trkpt lat="43.30477118374243" lon="12.922297005171748"><ele>397.00000000000006</ele><time>2026-04-29T13:53:04Z</time></trkpt><trkpt lat="43.304753274581984" lon="12.922194790738063"><ele>397.0</ele><time>2026-04-29T13:53:07Z</time></trkpt><trkpt lat="43.30474533734064" lon="12.922081932286654"><ele>399.33333333333337</ele><time>2026-04-29T13:53:10Z</time></trkpt><trkpt lat="43.30472725524545" lon="12.921981496848758"><ele>401.6666666666667</ele><time>2026-04-29T13:53:13Z</time></trkpt><trkpt lat="43.304718025071445" lon="12.921871935918341"><ele>404.0</ele><time>2026-04-29T13:53:16Z</time></trkpt><trkpt lat="43.30472960086041" lon="12.92178274065353"><ele>406.33333333333337</ele><time>2026-04-29T13:53:18Z</time></trkpt><trkpt lat="43.30473228041734" lon="12.921690442310418"><ele>408.6666666666667</ele><time>2026-04-29T13:53:20Z</time></trkpt><trkpt lat="43.30472874040669" lon="12.921530928950759"><ele>411.0</ele><time>2026-04-29T13:53:22Z</time></trkpt><trkpt lat="43.304714076858296" lon="12.921445950465175"><ele>411.5</ele><time>2026-04-29T13:53:23Z</time></trkpt><trkpt lat="43.304677351988744" lon="12.921283048604653"><ele>412.0</ele><time>2026-04-29T13:53:25Z</time></trkpt><trkpt lat="43.30466938374057" lon="12.921194238214163"><ele>412.5</ele><time>2026-04-29T13:53:26Z</time></trkpt><trkpt lat="43.304645155928775" lon="12.921101496852486"><ele>413.0</ele><time>2026-04-29T13:53:27Z</time></trkpt><trkpt lat="43.304616565780286" lon="12.92100807413021"><ele>413.5</ele><time>2026-04-29T13:53:28Z</time></trkpt><trkpt lat="43.30457380153079" lon="12.920924873776276"><ele>414.0</ele><time>2026-04-29T13:53:29Z</time></trkpt><trkpt lat="43.30454729550566" lon="12.920844068307446"><ele>412.1666666666667</ele><time>2026-04-29T13:53:30Z</time></trkpt><trkpt lat="43.3044976473872" lon="12.920726338944968"><ele>410.33333333333337</ele><time>2026-04-29T13:53:32Z</time></trkpt><trkpt lat="43.30445035108895" lon="12.92066492263431"><ele>408.5</ele><time>2026-04-29T13:53:33Z</time></trkpt><trkpt lat="43.30437573824112" lon="12.920554400362532"><ele>406.6666666666667</ele><time>2026-04-29T13:53:35Z</time></trkpt><trkpt lat="43.3043281599813" lon="12.920486109184942"><ele>404.83333333333337</ele><time>2026-04-29T13:53:36Z</time></trkpt><trkpt lat="43.304249135101735" lon="12.920454745618011"><ele>403.0</ele><time>2026-04-29T13:53:37Z</time></trkpt><trkpt lat="43.304175624777265" lon="12.920450481897205"><ele>403.00000000000006</ele><time>2026-04-29T13:53:38Z</time></trkpt><trkpt lat="43.30410939402503" lon="12.920444488798301"><ele>403.0</ele><time>2026-04-29T13:53:39Z</time></trkpt><trkpt lat="43.30404338012255" lon="12.92043965213368"><ele>403.0</ele><time>2026-04-29T13:53:40Z</time></trkpt><trkpt lat="43.30397636825226" lon="12.920451738199917"><ele>403.0</ele><time>2026-04-29T13:53:41Z</time></trkpt><trkpt lat="43.303856181994405" lon="12.920439764259092"><ele>403.00000000000006</ele><time>2026-04-29T13:53:43Z</time></trkpt><trkpt lat="43.30375552583273" lon="12.920401781247199"><ele>403.0</ele><time>2026-04-29T13:53:45Z</time></trkpt><trkpt lat="43.30367264139527" lon="12.920381634045652"><ele>403.0</ele><time>2026-04-29T13:53:47Z</time></trkpt><trkpt lat="43.303611665553646" lon="12.920358636290343"><ele>403.0</ele><time>2026-04-29T13:53:49Z</time></trkpt><trkpt lat="43.30367513793711" lon="12.920359757541938"><ele>403.0</ele><time>2026-04-29T13:53:56Z</time></trkpt><trkpt lat="43.30377795524824" lon="12.920350551033492"><ele>403.0</ele><time>2026-04-29T13:53:58Z</time></trkpt><trkpt lat="43.30388461360602" lon="12.920303495020285"><ele>403.0</ele><time>2026-04-29T13:54:00Z</time></trkpt><trkpt lat="43.30398047377816" lon="12.920204704074818"><ele>403.00000000000006</ele><time>2026-04-29T13:54:02Z</time></trkpt><trkpt lat="43.304084875656095" lon="12.92011807968312"><ele>403.0</ele><time>2026-04-29T13:54:04Z</time></trkpt><trkpt lat="43.30414336063471" lon="12.920067093316787"><ele>403.0</ele><time>2026-04-29T13:54:05Z</time></trkpt><trkpt lat="43.3042011246201" lon="12.920024500184725"><ele>403.0</ele><time>2026-04-29T13:54:06Z</time></trkpt><trkpt lat="43.3042613010691" lon="12.919987812564221"><ele>403.00000000000006</ele><time>2026-04-29T13:54:06.999Z</time></trkpt><trkpt lat="43.30432490430182" lon="12.919987236356612"><ele>403.0</ele><time>2026-04-29T13:54:07.999Z</time></trkpt><trkpt lat="43.30442295921771" lon="12.919983095936953"><ele>403.0</ele><time>2026-04-29T13:54:09.999Z</time></trkpt><trkpt lat="43.304501946583784" lon="12.920015045748421"><ele>403.0</ele><time>2026-04-29T13:54:11.999Z</time></trkpt><trkpt lat="43.30457365401254" lon="12.920087924881214"><ele>403.0</ele><time>2026-04-29T13:54:13.999Z</time></trkpt><trkpt lat="43.30466297665941" lon="12.920137544468677"><ele>403.0</ele><time>2026-04-29T13:54:15.999Z</time></trkpt><trkpt lat="43.30474919471161" lon="12.92019700255081"><ele>403.0</ele><time>2026-04-29T13:54:17.999Z</time></trkpt><trkpt lat="43.30484024365142" lon="12.9202556183846"><ele>399.0</ele><time>2026-04-29T13:54:19.999Z</time></trkpt><trkpt lat="43.304935701519746" lon="12.92031130121478"><ele>395.0</ele><time>2026-04-29T13:54:21.999Z</time></trkpt><trkpt lat="43.30504154383663" lon="12.92035129897653"><ele>391.0</ele><time>2026-04-29T13:54:23.999Z</time></trkpt><trkpt lat="43.3051192188839" lon="12.920430580545808"><ele>387.0</ele><time>2026-04-29T13:54:25.999Z</time></trkpt><trkpt lat="43.30520084429592" lon="12.920500789504382"><ele>383.0</ele><time>2026-04-29T13:54:27.999Z</time></trkpt><trkpt lat="43.305249817290964" lon="12.920585210163203"><ele>383.0</ele><time>2026-04-29T13:54:30Z</time></trkpt><trkpt lat="43.305289833907175" lon="12.920671316254817"><ele>383.0</ele><time>2026-04-29T13:54:33Z</time></trkpt><trkpt lat="43.30532745072164" lon="12.92074603074116"><ele>383.0</ele><time>2026-04-29T13:54:37Z</time></trkpt><trkpt lat="43.30541539929701" lon="12.920664889824153"><ele>383.0</ele><time>2026-04-29T13:54:38Z</time></trkpt><trkpt lat="43.30547783386341" lon="12.920624395880573"><ele>383.0</ele><time>2026-04-29T13:54:41Z</time></trkpt><trkpt lat="43.30554281639715" lon="12.920613953678178"><ele>383.0</ele><time>2026-04-29T13:54:44Z</time></trkpt><trkpt lat="43.30561839759727" lon="12.920551089837613"><ele>382.7142857142857</ele><time>2026-04-29T13:54:48Z</time></trkpt><trkpt lat="43.30568256618618" lon="12.92050838220393"><ele>382.42857142857144</ele><time>2026-04-29T13:54:51Z</time></trkpt><trkpt lat="43.305740108757114" lon="12.920458908085669"><ele>382.1428571428571</ele><time>2026-04-29T13:54:54Z</time></trkpt><trkpt lat="43.305807841300286" lon="12.920411919478607"><ele>381.8571428571429</ele><time>2026-04-29T13:54:58Z</time></trkpt><trkpt lat="43.30584563007484" lon="12.920334206099623"><ele>381.5714285714286</ele><time>2026-04-29T13:55:02Z</time></trkpt><trkpt lat="43.305902088835545" lon="12.920266816838222"><ele>381.2857142857143</ele><time>2026-04-29T13:55:06Z</time></trkpt><trkpt lat="43.30593367319512" lon="12.920178242849815"><ele>381.0</ele><time>2026-04-29T13:55:10Z</time></trkpt><trkpt lat="43.30594680489533" lon="12.92007585878847"><ele>382.4285714285714</ele><time>2026-04-29T13:55:14Z</time></trkpt><trkpt lat="43.30595065501187" lon="12.919968756435665"><ele>383.8571428571429</ele><time>2026-04-29T13:55:18Z</time></trkpt><trkpt lat="43.3059585013402" lon="12.91987135305783"><ele>385.2857142857143</ele><time>2026-04-29T13:55:22Z</time></trkpt><trkpt lat="43.305969672082256" lon="12.91977384000176"><ele>386.71428571428567</ele><time>2026-04-29T13:55:26Z</time></trkpt><trkpt lat="43.30597047851846" lon="12.919673179003711"><ele>388.1428571428571</ele><time>2026-04-29T13:55:30Z</time></trkpt><trkpt lat="43.30598452918435" lon="12.919577239641653"><ele>389.57142857142856</ele><time>2026-04-29T13:55:34Z</time></trkpt><trkpt lat="43.306006807426584" lon="12.919484925177706"><ele>391.0</ele><time>2026-04-29T13:55:38Z</time></trkpt><trkpt lat="43.30601741917667" lon="12.919386566371717"><ele>390.99999999999994</ele><time>2026-04-29T13:55:42Z</time></trkpt><trkpt lat="43.306010880028246" lon="12.919292054475632"><ele>391.0</ele><time>2026-04-29T13:55:46Z</time></trkpt><trkpt lat="43.30601376028931" lon="12.919198550511938"><ele>391.0</ele><time>2026-04-29T13:55:50Z</time></trkpt><trkpt lat="43.30601992781028" lon="12.919110020513774"><ele>391.0</ele><time>2026-04-29T13:55:54Z</time></trkpt><trkpt lat="43.30601145708768" lon="12.919012643282803"><ele>391.0</ele><time>2026-04-29T13:55:58Z</time></trkpt><trkpt lat="43.30600964158319" lon="12.918910380762767"><ele>390.99999999999994</ele><time>2026-04-29T13:56:02Z</time></trkpt><trkpt lat="43.3060116375189" lon="12.918811117712611"><ele>391.0</ele><time>2026-04-29T13:56:06Z</time></trkpt><trkpt lat="43.306026482725194" lon="12.918681568902905"><ele>392.2857142857143</ele><time>2026-04-29T13:56:09.999Z</time></trkpt><trkpt lat="43.30602031591048" lon="12.918583689697854"><ele>393.57142857142856</ele><time>2026-04-29T13:56:13.999Z</time></trkpt><trkpt lat="43.30602758591522" lon="12.918489454417111"><ele>394.8571428571429</ele><time>2026-04-29T13:56:16.999Z</time></trkpt><trkpt lat="43.306032247140514" lon="12.918372338872834"><ele>396.1428571428571</ele><time>2026-04-29T13:56:20.999Z</time></trkpt><trkpt lat="43.30603800357164" lon="12.918280036943104"><ele>397.42857142857144</ele><time>2026-04-29T13:56:23.999Z</time></trkpt><trkpt lat="43.30604471225903" lon="12.918189725308341"><ele>398.7142857142857</ele><time>2026-04-29T13:56:26.999Z</time></trkpt><trkpt lat="43.30605708258188" lon="12.918075356700522"><ele>400.0</ele><time>2026-04-29T13:56:30.999Z</time></trkpt><trkpt lat="43.306068676974704" lon="12.917970157845012"><ele>401.83333333333337</ele><time>2026-04-29T13:56:36Z</time></trkpt><trkpt lat="43.306079266068416" lon="12.917864415336947"><ele>403.6666666666667</ele><time>2026-04-29T13:56:40Z</time></trkpt><trkpt lat="43.306099179271854" lon="12.917768991539493"><ele>405.5</ele><time>2026-04-29T13:56:45Z</time></trkpt><trkpt lat="43.30612420628081" lon="12.917685458001879"><ele>407.33333333333337</ele><time>2026-04-29T13:56:49Z</time></trkpt><trkpt lat="43.306200476489" lon="12.917766607719868"><ele>409.1666666666667</ele><time>2026-04-29T13:56:55Z</time></trkpt><trkpt lat="43.30624355659857" lon="12.917857553786344"><ele>411.0</ele><time>2026-04-29T13:56:58Z</time></trkpt><trkpt lat="43.30628260311395" lon="12.917949314728105"><ele>411.0</ele><time>2026-04-29T13:57:01Z</time></trkpt><trkpt lat="43.30632769354687" lon="12.918026596265607"><ele>411.0</ele><time>2026-04-29T13:57:04Z</time></trkpt><trkpt lat="43.306376191776664" lon="12.918104354609913"><ele>411.0</ele><time>2026-04-29T13:57:07Z</time></trkpt><trkpt lat="43.30642314788102" lon="12.918188714269373"><ele>411.0</ele><time>2026-04-29T13:57:10Z</time></trkpt><trkpt lat="43.30648502834112" lon="12.918262043270364"><ele>411.0</ele><time>2026-04-29T13:57:13Z</time></trkpt><trkpt lat="43.30653941092737" lon="12.918337261557983"><ele>411.0</ele><time>2026-04-29T13:57:16Z</time></trkpt><trkpt lat="43.306581647427386" lon="12.918424657157747"><ele>414.1666666666667</ele><time>2026-04-29T13:57:19Z</time></trkpt><trkpt lat="43.30664117677176" lon="12.918475059964484"><ele>417.33333333333337</ele><time>2026-04-29T13:57:22Z</time></trkpt><trkpt lat="43.3067098403066" lon="12.918562460204239"><ele>420.5</ele><time>2026-04-29T13:57:25Z</time></trkpt><trkpt lat="43.30678792409349" lon="12.918614532023982"><ele>423.6666666666667</ele><time>2026-04-29T13:57:28Z</time></trkpt><trkpt lat="43.3068660699105" lon="12.91865676954452"><ele>426.83333333333337</ele><time>2026-04-29T13:57:31Z</time></trkpt><trkpt lat="43.30695838906753" lon="12.918655982549074"><ele>430.0</ele><time>2026-04-29T13:57:35Z</time></trkpt><trkpt lat="43.307037093335225" lon="12.918643376036448"><ele>430.0</ele><time>2026-04-29T13:57:39Z</time></trkpt><trkpt lat="43.30710933522799" lon="12.918579958190366"><ele>430.0</ele><time>2026-04-29T13:57:42Z</time></trkpt><trkpt lat="43.307197040548" lon="12.91849167490699"><ele>430.0</ele><time>2026-04-29T13:57:45Z</time></trkpt><trkpt lat="43.307274745706245" lon="12.918415807541091"><ele>430.0</ele><time>2026-04-29T13:57:47Z</time></trkpt><trkpt lat="43.30735317839944" lon="12.918324048525685"><ele>430.0</ele><time>2026-04-29T13:57:49Z</time></trkpt><trkpt lat="43.307442820353245" lon="12.918239066487484"><ele>432.0</ele><time>2026-04-29T13:57:51Z</time></trkpt><trkpt lat="43.30753752677512" lon="12.91816741792481"><ele>434.0</ele><time>2026-04-29T13:57:53Z</time></trkpt><trkpt lat="43.30763571925579" lon="12.91811893944226"><ele>436.0</ele><time>2026-04-29T13:57:55Z</time></trkpt><trkpt lat="43.30772540381096" lon="12.918095977870857"><ele>438.0</ele><time>2026-04-29T13:57:57Z</time></trkpt><trkpt lat="43.30780974389147" lon="12.918091258801876"><ele>440.0</ele><time>2026-04-29T13:57:59Z</time></trkpt><trkpt lat="43.30788547791675" lon="12.918109087346279"><ele>439.99999999999994</ele><time>2026-04-29T13:58:01Z</time></trkpt><trkpt lat="43.30795709199179" lon="12.91812983668944"><ele>440.0</ele><time>2026-04-29T13:58:03Z</time></trkpt><trkpt lat="43.30803289863219" lon="12.918161010475446"><ele>440.0</ele><time>2026-04-29T13:58:06Z</time></trkpt><trkpt lat="43.30811578116533" lon="12.918206001970672"><ele>440.0</ele><time>2026-04-29T13:58:08.999Z</time></trkpt><trkpt lat="43.308187438234306" lon="12.918231618631259"><ele>439.99999999999994</ele><time>2026-04-29T13:58:10.999Z</time></trkpt><trkpt lat="43.30825554683691" lon="12.918267879138066"><ele>440.0</ele><time>2026-04-29T13:58:12.999Z</time></trkpt><trkpt lat="43.30832049662187" lon="12.918295698425695"><ele>440.66666666666663</ele><time>2026-04-29T13:58:14.999Z</time></trkpt><trkpt lat="43.30840124837481" lon="12.918362589588167"><ele>441.3333333333333</ele><time>2026-04-29T13:58:16.999Z</time></trkpt><trkpt lat="43.30847345507337" lon="12.918409947514315"><ele>442.0</ele><time>2026-04-29T13:58:18.999Z</time></trkpt><trkpt lat="43.308542719011776" lon="12.918453988581852"><ele>442.66666666666663</ele><time>2026-04-29T13:58:20.999Z</time></trkpt><trkpt lat="43.30861739787241" lon="12.918522316468966"><ele>443.3333333333333</ele><time>2026-04-29T13:58:22.999Z</time></trkpt><trkpt lat="43.30869244520922" lon="12.918615731291181"><ele>444.0</ele><time>2026-04-29T13:58:24.999Z</time></trkpt><trkpt lat="43.3087601879597" lon="12.918741269475944"><ele>443.8333333333333</ele><time>2026-04-29T13:58:26.999Z</time></trkpt><trkpt lat="43.30882138345538" lon="12.91886135229978"><ele>443.66666666666663</ele><time>2026-04-29T13:58:28.999Z</time></trkpt><trkpt lat="43.3088664298526" lon="12.91897336941129"><ele>443.5</ele><time>2026-04-29T13:58:30.999Z</time></trkpt><trkpt lat="43.308911326085585" lon="12.9190633368241"><ele>443.3333333333333</ele><time>2026-04-29T13:58:32.999Z</time></trkpt><trkpt lat="43.30894896390817" lon="12.919160540682675"><ele>443.16666666666663</ele><time>2026-04-29T13:58:34.999Z</time></trkpt><trkpt lat="43.30899852485219" lon="12.919237382457357"><ele>443.0</ele><time>2026-04-29T13:58:36.999Z</time></trkpt><trkpt lat="43.309066640058376" lon="12.919327154335551"><ele>440.66666666666663</ele><time>2026-04-29T13:58:38.999Z</time></trkpt><trkpt lat="43.30913013432534" lon="12.919423526147456"><ele>438.3333333333333</ele><time>2026-04-29T13:58:41.001Z</time></trkpt><trkpt lat="43.30918046702762" lon="12.919517907052507"><ele>436.0</ele><time>2026-04-29T13:58:43.001Z</time></trkpt><trkpt lat="43.30923088317025" lon="12.919583256690135"><ele>433.66666666666663</ele><time>2026-04-29T13:58:45.001Z</time></trkpt><trkpt lat="43.309271568050384" lon="12.919651209906968"><ele>431.3333333333333</ele><time>2026-04-29T13:58:47.001Z</time></trkpt><trkpt lat="43.30933344443614" lon="12.91969684779494"><ele>429.0</ele><time>2026-04-29T13:58:49.001Z</time></trkpt><trkpt lat="43.30939984836731" lon="12.919744136055224"><ele>429.0</ele><time>2026-04-29T13:58:54.001Z</time></trkpt><trkpt lat="43.30952501416498" lon="12.91949803317699"><ele>429.0</ele><time>2026-04-29T13:59:00Z</time></trkpt><trkpt lat="43.30954353218589" lon="12.919398292220354"><ele>429.0</ele><time>2026-04-29T13:59:04Z</time></trkpt><trkpt lat="43.3095605180178" lon="12.919305951661903"><ele>429.0</ele><time>2026-04-29T13:59:07Z</time></trkpt><trkpt lat="43.30956461685837" lon="12.919215123474368"><ele>429.0</ele><time>2026-04-29T13:59:10Z</time></trkpt><trkpt lat="43.309571980773875" lon="12.919122390394774"><ele>431.0</ele><time>2026-04-29T13:59:13Z</time></trkpt><trkpt lat="43.30959735161698" lon="12.919032052539459"><ele>433.0</ele><time>2026-04-29T13:59:17Z</time></trkpt><trkpt lat="43.309644773231746" lon="12.91894067326997"><ele>435.0</ele><time>2026-04-29T13:59:22Z</time></trkpt><trkpt lat="43.30967427561629" lon="12.918848402095142"><ele>437.0</ele><time>2026-04-29T13:59:27Z</time></trkpt><trkpt lat="43.30971089066108" lon="12.918757561060062"><ele>439.0</ele><time>2026-04-29T13:59:32Z</time></trkpt><trkpt lat="43.30975003801024" lon="12.918686908749422"><ele>441.0</ele><time>2026-04-29T13:59:36Z</time></trkpt><trkpt lat="43.3098022572851" lon="12.91861183229719"><ele>443.0</ele><time>2026-04-29T13:59:41Z</time></trkpt><trkpt lat="43.309852522119876" lon="12.91854888670722"><ele>444.14285714285717</ele><time>2026-04-29T13:59:46Z</time></trkpt><trkpt lat="43.30991327064255" lon="12.918514749631573"><ele>445.28571428571433</ele><time>2026-04-29T13:59:51Z</time></trkpt><trkpt lat="43.30997395179939" lon="12.918476681059005"><ele>446.42857142857144</ele><time>2026-04-29T13:59:55Z</time></trkpt><trkpt lat="43.31005429281832" lon="12.918447336432017"><ele>447.57142857142856</ele><time>2026-04-29T14:00:00Z</time></trkpt><trkpt lat="43.31012015413648" lon="12.918412546097668"><ele>448.7142857142857</ele><time>2026-04-29T14:00:06Z</time></trkpt><trkpt lat="43.310193984441156" lon="12.918395023871295"><ele>449.85714285714283</ele><time>2026-04-29T14:00:11Z</time></trkpt><trkpt lat="43.31025548720425" lon="12.918366804742663"><ele>451.0</ele><time>2026-04-29T14:00:15Z</time></trkpt><trkpt lat="43.31032167565635" lon="12.918342156660527"><ele>454.1428571428571</ele><time>2026-04-29T14:00:20Z</time></trkpt><trkpt lat="43.310385049242015" lon="12.918331499366476"><ele>457.28571428571433</ele><time>2026-04-29T14:00:24.999Z</time></trkpt><trkpt lat="43.31045480302482" lon="12.918295271278375"><ele>460.42857142857144</ele><time>2026-04-29T14:00:29.999Z</time></trkpt><trkpt lat="43.310521204267836" lon="12.918231912771011"><ele>463.57142857142856</ele><time>2026-04-29T14:00:34.999Z</time></trkpt><trkpt lat="43.310587362272045" lon="12.91818650378941"><ele>466.71428571428567</ele><time>2026-04-29T14:00:40.999Z</time></trkpt><trkpt lat="43.31065314942523" lon="12.918126605261065"><ele>469.8571428571429</ele><time>2026-04-29T14:00:45.999Z</time></trkpt><trkpt lat="43.31071464129063" lon="12.918081241880005"><ele>473.0</ele><time>2026-04-29T14:00:51.001Z</time></trkpt><trkpt lat="43.31078427822418" lon="12.918037368235675"><ele>473.7142857142857</ele><time>2026-04-29T14:01:33Z</time></trkpt><trkpt lat="43.31084023460249" lon="12.917988879664739"><ele>474.42857142857144</ele><time>2026-04-29T14:01:43Z</time></trkpt><trkpt lat="43.31089659410791" lon="12.917937421318559"><ele>475.14285714285717</ele><time>2026-04-29T14:01:52Z</time></trkpt><trkpt lat="43.31094955942564" lon="12.917874177397282"><ele>475.8571428571429</ele><time>2026-04-29T14:02:02Z</time></trkpt><trkpt lat="43.311000292887" lon="12.917808692119312"><ele>476.57142857142856</ele><time>2026-04-29T14:02:11Z</time></trkpt><trkpt lat="43.31105364143952" lon="12.917748800012445"><ele>477.28571428571433</ele><time>2026-04-29T14:02:18Z</time></trkpt><trkpt lat="43.31111324633766" lon="12.917700313629243"><ele>478.00000000000006</ele><time>2026-04-29T14:02:27Z</time></trkpt><trkpt lat="43.31117841929199" lon="12.917657364949445"><ele>478.00000000000006</ele><time>2026-04-29T14:02:32.999Z</time></trkpt><trkpt lat="43.31124321280213" lon="12.917606758032065"><ele>478.0</ele><time>2026-04-29T14:02:38.999Z</time></trkpt><trkpt lat="43.31130492074859" lon="12.917573180397861"><ele>478.00000000000006</ele><time>2026-04-29T14:02:43.999Z</time></trkpt><trkpt lat="43.31136814651489" lon="12.917537951367073"><ele>478.00000000000006</ele><time>2026-04-29T14:02:48.999Z</time></trkpt><trkpt lat="43.31142435718373" lon="12.917497806329639"><ele>478.0</ele><time>2026-04-29T14:02:54.001Z</time></trkpt><trkpt lat="43.31149252494143" lon="12.917458407339144"><ele>478.00000000000006</ele><time>2026-04-29T14:03:00.001Z</time></trkpt><trkpt lat="43.311552477502474" lon="12.917416024058834"><ele>478.00000000000006</ele><time>2026-04-29T14:03:04.001Z</time></trkpt><trkpt lat="43.31161880560689" lon="12.917355874547528"><ele>481.00000000000006</ele><time>2026-04-29T14:03:09.001Z</time></trkpt><trkpt lat="43.3116756494163" lon="12.917294094186962"><ele>484.0</ele><time>2026-04-29T14:03:14.001Z</time></trkpt><trkpt lat="43.31171846112338" lon="12.917185754080068"><ele>487.0</ele><time>2026-04-29T14:03:18Z</time></trkpt><trkpt lat="43.311737994628444" lon="12.917099283619557"><ele>490.0</ele><time>2026-04-29T14:03:22Z</time></trkpt><trkpt lat="43.31174260581734" lon="12.916995382047213"><ele>493.00000000000006</ele><time>2026-04-29T14:03:26Z</time></trkpt><trkpt lat="43.31175722623756" lon="12.91687897919094"><ele>496.0</ele><time>2026-04-29T14:03:29Z</time></trkpt><trkpt lat="43.311750105283785" lon="12.916758947315707"><ele>496.83333333333337</ele><time>2026-04-29T14:03:32Z</time></trkpt><trkpt lat="43.3117298668743" lon="12.916662093364035"><ele>497.6666666666667</ele><time>2026-04-29T14:03:35Z</time></trkpt><trkpt lat="43.31171911920711" lon="12.916565575075948"><ele>498.5</ele><time>2026-04-29T14:03:37Z</time></trkpt><trkpt lat="43.311695075025455" lon="12.91644580658706"><ele>499.33333333333337</ele><time>2026-04-29T14:03:40Z</time></trkpt><trkpt lat="43.31169008109007" lon="12.916330468902641"><ele>500.1666666666667</ele><time>2026-04-29T14:03:43Z</time></trkpt><trkpt lat="43.311691846968" lon="12.916236816185842"><ele>501.0</ele><time>2026-04-29T14:03:46Z</time></trkpt><trkpt lat="43.31169984193095" lon="12.916128437823394"><ele>501.0</ele><time>2026-04-29T14:03:49Z</time></trkpt><trkpt lat="43.31171718298592" lon="12.91602282434273"><ele>501.0</ele><time>2026-04-29T14:03:52Z</time></trkpt><trkpt lat="43.311731845273556" lon="12.915938081929344"><ele>501.0</ele><time>2026-04-29T14:03:54Z</time></trkpt><trkpt lat="43.31175916307385" lon="12.91583987592172"><ele>501.0</ele><time>2026-04-29T14:03:56Z</time></trkpt><trkpt lat="43.311777423879164" lon="12.915751162017495"><ele>501.0</ele><time>2026-04-29T14:03:58Z</time></trkpt><trkpt lat="43.31182467604859" lon="12.9156519275964"><ele>501.0</ele><time>2026-04-29T14:04:00Z</time></trkpt><trkpt lat="43.311856131909884" lon="12.915561510632571"><ele>501.0</ele><time>2026-04-29T14:04:02Z</time></trkpt><trkpt lat="43.311886352472335" lon="12.91548273930812"><ele>502.8</ele><time>2026-04-29T14:04:04Z</time></trkpt><trkpt lat="43.31193408708538" lon="12.915371653708222"><ele>504.6</ele><time>2026-04-29T14:04:06Z</time></trkpt><trkpt lat="43.31197270470413" lon="12.915266724297656"><ele>506.4</ele><time>2026-04-29T14:04:08Z</time></trkpt><trkpt lat="43.312013779261896" lon="12.915161595299157"><ele>508.2</ele><time>2026-04-29T14:04:10Z</time></trkpt><trkpt lat="43.312054303538844" lon="12.915050979449338"><ele>510.0</ele><time>2026-04-29T14:04:12Z</time></trkpt><trkpt lat="43.31210132213221" lon="12.91493481800044"><ele>512.3333333333334</ele><time>2026-04-29T14:04:14Z</time></trkpt><trkpt lat="43.312134799308495" lon="12.914822607170233"><ele>514.6666666666666</ele><time>2026-04-29T14:04:16Z</time></trkpt><trkpt lat="43.31216968607205" lon="12.914715098813474"><ele>517.0</ele><time>2026-04-29T14:04:18Z</time></trkpt><trkpt lat="43.31221180155249" lon="12.914611195377756"><ele>519.3333333333333</ele><time>2026-04-29T14:04:20Z</time></trkpt><trkpt lat="43.31223318461962" lon="12.9145187354048"><ele>521.6666666666666</ele><time>2026-04-29T14:04:22Z</time></trkpt><trkpt lat="43.31226062384803" lon="12.914413614158436"><ele>524.0</ele><time>2026-04-29T14:04:24Z</time></trkpt><trkpt lat="43.312284780829124" lon="12.914290599054343"><ele>518.6666666666666</ele><time>2026-04-29T14:04:26Z</time></trkpt><trkpt lat="43.31230488462545" lon="12.914169391643023"><ele>513.3333333333333</ele><time>2026-04-29T14:04:27.999Z</time></trkpt><trkpt lat="43.312321664384946" lon="12.914053857086081"><ele>508.0</ele><time>2026-04-29T14:04:29.999Z</time></trkpt><trkpt lat="43.31232431895623" lon="12.913944993732512"><ele>502.66666666666663</ele><time>2026-04-29T14:04:31.999Z</time></trkpt><trkpt lat="43.31231212765754" lon="12.913825919416773"><ele>497.3333333333333</ele><time>2026-04-29T14:04:33.999Z</time></trkpt><trkpt lat="43.31229253851244" lon="12.913699380416913"><ele>492.0</ele><time>2026-04-29T14:04:35.999Z</time></trkpt><trkpt lat="43.31227256747758" lon="12.913610886841209"><ele>498.00000000000006</ele><time>2026-04-29T14:04:37.999Z</time></trkpt><trkpt lat="43.31223342342723" lon="12.913508775819247"><ele>504.0</ele><time>2026-04-29T14:04:39.999Z</time></trkpt><trkpt lat="43.312208849975725" lon="12.913424324953876"><ele>510.00000000000006</ele><time>2026-04-29T14:04:41.999Z</time></trkpt><trkpt lat="43.31218126031551" lon="12.913338801705137"><ele>516.0</ele><time>2026-04-29T14:04:43.999Z</time></trkpt><trkpt lat="43.312155353450386" lon="12.913259319528025"><ele>522.0</ele><time>2026-04-29T14:04:45.999Z</time></trkpt><trkpt lat="43.312113494004464" lon="12.913168149925546"><ele>528.0000000000001</ele><time>2026-04-29T14:04:48.999Z</time></trkpt><trkpt lat="43.31206944619887" lon="12.913064442460126"><ele>534.0</ele><time>2026-04-29T14:04:51.999Z</time></trkpt><trkpt lat="43.31202207533919" lon="12.912980033581407"><ele>534.0000000000001</ele><time>2026-04-29T14:04:56.999Z</time></trkpt><trkpt lat="43.31197562154585" lon="12.91291615823066"><ele>534.0</ele><time>2026-04-29T14:05:08.001Z</time></trkpt><trkpt lat="43.311922849509955" lon="12.912863954464028"><ele>534.0</ele><time>2026-04-29T14:05:19Z</time></trkpt><trkpt lat="43.311873595043686" lon="12.912809414998042"><ele>534.0</ele><time>2026-04-29T14:05:29Z</time></trkpt><trkpt lat="43.311818777023795" lon="12.912766140946228"><ele>534.0</ele><time>2026-04-29T14:05:36Z</time></trkpt><trkpt lat="43.31175679684877" lon="12.912718185098447"><ele>534.0000000000001</ele><time>2026-04-29T14:05:44Z</time></trkpt><trkpt lat="43.311694256020374" lon="12.91266541227305"><ele>534.0</ele><time>2026-04-29T14:05:53Z</time></trkpt><trkpt lat="43.311644447178615" lon="12.91260704958661"><ele>531.1428571428572</ele><time>2026-04-29T14:06:03Z</time></trkpt><trkpt lat="43.31159270969288" lon="12.91253344614099"><ele>528.2857142857143</ele><time>2026-04-29T14:06:28Z</time></trkpt><trkpt lat="43.3115379820708" lon="12.912463756571826"><ele>525.4285714285714</ele><time>2026-04-29T14:06:33.999Z</time></trkpt><trkpt lat="43.31148351497242" lon="12.9123969365574"><ele>522.5714285714287</ele><time>2026-04-29T14:06:39.999Z</time></trkpt><trkpt lat="43.31143439548835" lon="12.912333957847114"><ele>519.7142857142858</ele><time>2026-04-29T14:06:43.999Z</time></trkpt><trkpt lat="43.311379063954334" lon="12.91227438203382"><ele>516.8571428571429</ele><time>2026-04-29T14:06:47.999Z</time></trkpt><trkpt lat="43.31132898994078" lon="12.912217961147855"><ele>514.0</ele><time>2026-04-29T14:06:53.999Z</time></trkpt><trkpt lat="43.31127024684236" lon="12.91217166305895"><ele>516.7142857142857</ele><time>2026-04-29T14:07:06.001Z</time></trkpt><trkpt lat="43.31122663758828" lon="12.91209707865607"><ele>519.4285714285714</ele><time>2026-04-29T14:07:16.001Z</time></trkpt><trkpt lat="43.31118387288655" lon="12.912031447100864"><ele>522.1428571428571</ele><time>2026-04-29T14:07:22Z</time></trkpt><trkpt lat="43.31114022178685" lon="12.911960447671472"><ele>524.8571428571429</ele><time>2026-04-29T14:07:25Z</time></trkpt><trkpt lat="43.31108329575047" lon="12.91188101039173"><ele>527.5714285714286</ele><time>2026-04-29T14:07:28Z</time></trkpt><trkpt lat="43.31104187474723" lon="12.911809053002315"><ele>530.2857142857142</ele><time>2026-04-29T14:07:31Z</time></trkpt><trkpt lat="43.3109879534032" lon="12.911745792476212"><ele>533.0</ele><time>2026-04-29T14:07:34Z</time></trkpt><trkpt lat="43.31093040508511" lon="12.911685751288177"><ele>533.0</ele><time>2026-04-29T14:07:37Z</time></trkpt><trkpt lat="43.31088207165309" lon="12.911627749680294"><ele>533.0</ele><time>2026-04-29T14:07:40Z</time></trkpt><trkpt lat="43.31082781823271" lon="12.911576994530689"><ele>533.0</ele><time>2026-04-29T14:07:43Z</time></trkpt><trkpt lat="43.310775408367775" lon="12.911516137353065"><ele>533.0</ele><time>2026-04-29T14:07:46Z</time></trkpt><trkpt lat="43.310719942704004" lon="12.911446930359142"><ele>533.0</ele><time>2026-04-29T14:07:50Z</time></trkpt><trkpt lat="43.310671671820145" lon="12.91137324781307"><ele>533.0</ele><time>2026-04-29T14:07:55Z</time></trkpt><trkpt lat="43.31062980689418" lon="12.911287520951786"><ele>533.0</ele><time>2026-04-29T14:08:01Z</time></trkpt><trkpt lat="43.310587092294455" lon="12.911216422626143"><ele>536.1666666666666</ele><time>2026-04-29T14:08:06Z</time></trkpt><trkpt lat="43.31054315018742" lon="12.911142359579424"><ele>539.3333333333333</ele><time>2026-04-29T14:08:11Z</time></trkpt><trkpt lat="43.31049286737917" lon="12.911046146106443"><ele>542.5</ele><time>2026-04-29T14:08:15Z</time></trkpt><trkpt lat="43.31044136172732" lon="12.910969645726682"><ele>545.6666666666666</ele><time>2026-04-29T14:08:18Z</time></trkpt><trkpt lat="43.31038520285147" lon="12.910884195896056"><ele>548.8333333333334</ele><time>2026-04-29T14:08:21Z</time></trkpt><trkpt lat="43.31033901185934" lon="12.910824950611875"><ele>552.0</ele><time>2026-04-29T14:08:23Z</time></trkpt><trkpt lat="43.31028904597374" lon="12.910754520407421"><ele>552.0</ele><time>2026-04-29T14:08:25Z</time></trkpt><trkpt lat="43.310223483749105" lon="12.910668675353111"><ele>552.0</ele><time>2026-04-29T14:08:27.999Z</time></trkpt><trkpt lat="43.3101705134384" lon="12.910579201800504"><ele>552.0</ele><time>2026-04-29T14:08:30.999Z</time></trkpt><trkpt lat="43.31012127766079" lon="12.910507609041444"><ele>552.0</ele><time>2026-04-29T14:08:33.999Z</time></trkpt><trkpt lat="43.310072595031656" lon="12.91041831773779"><ele>552.0</ele><time>2026-04-29T14:08:36.999Z</time></trkpt><trkpt lat="43.31003454660192" lon="12.910332235766408"><ele>552.0</ele><time>2026-04-29T14:08:39.999Z</time></trkpt><trkpt lat="43.30998512531136" lon="12.910252213248457"><ele>552.0</ele><time>2026-04-29T14:08:41.999Z</time></trkpt><trkpt lat="43.309929272558286" lon="12.910156020809572"><ele>552.0</ele><time>2026-04-29T14:08:44.999Z</time></trkpt><trkpt lat="43.309890581931256" lon="12.910079541069965"><ele>552.0</ele><time>2026-04-29T14:08:46.999Z</time></trkpt><trkpt lat="43.30985554381407" lon="12.910003908778975"><ele>552.0</ele><time>2026-04-29T14:08:48.999Z</time></trkpt><trkpt lat="43.30981927732208" lon="12.909928633307363"><ele>552.0</ele><time>2026-04-29T14:08:52.999Z</time></trkpt><trkpt lat="43.30977586208253" lon="12.909843638999911"><ele>552.0</ele><time>2026-04-29T14:08:56.999Z</time></trkpt><trkpt lat="43.309738865354774" lon="12.909771135334962"><ele>552.0</ele><time>2026-04-29T14:09:00.999Z</time></trkpt><trkpt lat="43.30969637149465" lon="12.909692536291342"><ele>552.7142857142858</ele><time>2026-04-29T14:09:05.999Z</time></trkpt><trkpt lat="43.309652946410715" lon="12.909623828709503"><ele>553.4285714285714</ele><time>2026-04-29T14:09:10Z</time></trkpt><trkpt lat="43.3096020999849" lon="12.90955502608969"><ele>554.1428571428571</ele><time>2026-04-29T14:09:15Z</time></trkpt><trkpt lat="43.30955356810335" lon="12.909480978322353"><ele>554.8571428571429</ele><time>2026-04-29T14:09:19Z</time></trkpt><trkpt lat="43.309507948982265" lon="12.909413058522164"><ele>555.5714285714286</ele><time>2026-04-29T14:09:22Z</time></trkpt><trkpt lat="43.309458281389766" lon="12.909333142144984"><ele>556.2857142857143</ele><time>2026-04-29T14:09:25Z</time></trkpt><trkpt lat="43.30941954756697" lon="12.909257336270123"><ele>557.0</ele><time>2026-04-29T14:09:28Z</time></trkpt><trkpt lat="43.30937705264506" lon="12.909168167931961"><ele>557.0</ele><time>2026-04-29T14:09:31Z</time></trkpt><trkpt lat="43.309340411589716" lon="12.909066054263468"><ele>557.0</ele><time>2026-04-29T14:09:34Z</time></trkpt><trkpt lat="43.309319286382504" lon="12.908976591248292"><ele>557.0</ele><time>2026-04-29T14:09:36Z</time></trkpt><trkpt lat="43.309287014968554" lon="12.90887090448014"><ele>557.0</ele><time>2026-04-29T14:09:39Z</time></trkpt><trkpt lat="43.309250179293045" lon="12.908747285650085"><ele>557.0</ele><time>2026-04-29T14:09:42Z</time></trkpt><trkpt lat="43.30921957331386" lon="12.908659951214345"><ele>557.0</ele><time>2026-04-29T14:09:44Z</time></trkpt><trkpt lat="43.309178876976006" lon="12.908544366049918"><ele>557.0</ele><time>2026-04-29T14:09:47Z</time></trkpt><trkpt lat="43.30915038280017" lon="12.908459594354971"><ele>557.0</ele><time>2026-04-29T14:09:49Z</time></trkpt><trkpt lat="43.30912359244822" lon="12.908370991594289"><ele>557.0</ele><time>2026-04-29T14:09:52Z</time></trkpt><trkpt lat="43.30909065852436" lon="12.908281286557502"><ele>557.0</ele><time>2026-04-29T14:09:55Z</time></trkpt><trkpt lat="43.30910388676183" lon="12.90818453461623"><ele>557.0</ele><time>2026-04-29T14:09:59Z</time></trkpt><trkpt lat="43.30916749011284" lon="12.908173856018532"><ele>557.0</ele><time>2026-04-29T14:10:01Z</time></trkpt><trkpt lat="43.30926621215654" lon="12.908162956039702"><ele>557.0</ele><time>2026-04-29T14:10:04Z</time></trkpt><trkpt lat="43.3093661065908" lon="12.908162107091895"><ele>556.4</ele><time>2026-04-29T14:10:06Z</time></trkpt><trkpt lat="43.309479232354114" lon="12.908161015693109"><ele>555.8000000000001</ele><time>2026-04-29T14:10:08Z</time></trkpt><trkpt lat="43.30955986843539" lon="12.90817306573067"><ele>555.2</ele><time>2026-04-29T14:10:09Z</time></trkpt><trkpt lat="43.30968969498472" lon="12.908179183030157"><ele>554.6</ele><time>2026-04-29T14:10:11Z</time></trkpt><trkpt lat="43.30975402640647" lon="12.908151784570894"><ele>554.0</ele><time>2026-04-29T14:10:12Z</time></trkpt><trkpt lat="43.30986165069201" lon="12.908137833498197"><ele>552.0</ele><time>2026-04-29T14:10:14Z</time></trkpt><trkpt lat="43.309971008088226" lon="12.908114447111432"><ele>550.0</ele><time>2026-04-29T14:10:16Z</time></trkpt><trkpt lat="43.3100459451543" lon="12.90807948809388"><ele>548.0</ele><time>2026-04-29T14:10:17Z</time></trkpt><trkpt lat="43.310117044047146" lon="12.90807478606985"><ele>546.0</ele><time>2026-04-29T14:10:18Z</time></trkpt><trkpt lat="43.310213477901065" lon="12.90803855658753"><ele>544.0</ele><time>2026-04-29T14:10:20Z</time></trkpt><trkpt lat="43.31031521888933" lon="12.907985113171591"><ele>544.0</ele><time>2026-04-29T14:10:20.999Z</time></trkpt><trkpt lat="43.310369946340664" lon="12.90794010129004"><ele>544.0</ele><time>2026-04-29T14:10:21.999Z</time></trkpt><trkpt lat="43.31040621590222" lon="12.907867270808394"><ele>544.0</ele><time>2026-04-29T14:10:22.999Z</time></trkpt><trkpt lat="43.31042886390606" lon="12.90770264234786"><ele>544.0</ele><time>2026-04-29T14:10:24.999Z</time></trkpt><trkpt lat="43.31041798112649" lon="12.907538190407385"><ele>544.0</ele><time>2026-04-29T14:10:26.999Z</time></trkpt><trkpt lat="43.31041973908782" lon="12.90737986422736"><ele>544.9999999999999</ele><time>2026-04-29T14:10:28.999Z</time></trkpt><trkpt lat="43.31042172007156" lon="12.907287238910438"><ele>546.0</ele><time>2026-04-29T14:10:29.999Z</time></trkpt><trkpt lat="43.31042151861077" lon="12.90719831614949"><ele>547.0</ele><time>2026-04-29T14:10:30.999Z</time></trkpt><trkpt lat="43.310437487513425" lon="12.907098018723905"><ele>548.0</ele><time>2026-04-29T14:10:31.999Z</time></trkpt><trkpt lat="43.31046143714423" lon="12.907001781064123"><ele>549.0</ele><time>2026-04-29T14:10:32.999Z</time></trkpt><trkpt lat="43.31048225013862" lon="12.906902218818722"><ele>549.9999999999999</ele><time>2026-04-29T14:10:33.999Z</time></trkpt><trkpt lat="43.310491052202146" lon="12.906799022255296"><ele>551.0</ele><time>2026-04-29T14:10:34.999Z</time></trkpt><trkpt lat="43.310485077376875" lon="12.906704340185163"><ele>551.8333333333333</ele><time>2026-04-29T14:10:35.999Z</time></trkpt><trkpt lat="43.3105140995001" lon="12.90657014488479"><ele>552.6666666666666</ele><time>2026-04-29T14:10:37.999Z</time></trkpt><trkpt lat="43.31059072561612" lon="12.906597074739084"><ele>553.5</ele><time>2026-04-29T14:10:39.999Z</time></trkpt><trkpt lat="43.31065763457358" lon="12.906633350811816"><ele>554.3333333333334</ele><time>2026-04-29T14:10:41.999Z</time></trkpt><trkpt lat="43.310742776744384" lon="12.906660939897247"><ele>555.1666666666667</ele><time>2026-04-29T14:10:44.999Z</time></trkpt><trkpt lat="43.3108086372956" lon="12.906667066805559"><ele>556.0</ele><time>2026-04-29T14:10:46.999Z</time></trkpt><trkpt lat="43.310888314591885" lon="12.906664591870314"><ele>553.5</ele><time>2026-04-29T14:10:48.999Z</time></trkpt><trkpt lat="43.310961306474844" lon="12.906667208020519"><ele>551.0</ele><time>2026-04-29T14:10:50.999Z</time></trkpt><trkpt lat="43.31103381871619" lon="12.906675995376633"><ele>548.5</ele><time>2026-04-29T14:10:52.999Z</time></trkpt><trkpt lat="43.311114430331685" lon="12.906696986037733"><ele>546.0</ele><time>2026-04-29T14:10:55.999Z</time></trkpt><trkpt lat="43.31119929108837" lon="12.906707778344117"><ele>543.5</ele><time>2026-04-29T14:10:58.999Z</time></trkpt><trkpt lat="43.31127012745508" lon="12.906722696500454"><ele>541.0</ele><time>2026-04-29T14:11:01.999Z</time></trkpt><trkpt lat="43.3113528328374" lon="12.9067392115769"><ele>537.0</ele><time>2026-04-29T14:11:04.999Z</time></trkpt><trkpt lat="43.311437336731274" lon="12.906747638277661"><ele>533.0</ele><time>2026-04-29T14:11:07.999Z</time></trkpt><trkpt lat="43.31152313007371" lon="12.906755216257661"><ele>529.0</ele><time>2026-04-29T14:11:10.999Z</time></trkpt><trkpt lat="43.31160416643526" lon="12.90678596904765"><ele>525.0</ele><time>2026-04-29T14:11:13.999Z</time></trkpt><trkpt lat="43.31168416476824" lon="12.906811132732871"><ele>521.0</ele><time>2026-04-29T14:11:17Z</time></trkpt><trkpt lat="43.31175709233277" lon="12.906839563713525"><ele>517.0</ele><time>2026-04-29T14:11:19Z</time></trkpt><trkpt lat="43.311838484115405" lon="12.90685648131921"><ele>517.0</ele><time>2026-04-29T14:11:22Z</time></trkpt><trkpt lat="43.31192455488113" lon="12.90689693099335"><ele>517.0</ele><time>2026-04-29T14:11:25Z</time></trkpt><trkpt lat="43.311985084621966" lon="12.906929938877273"><ele>517.0</ele><time>2026-04-29T14:11:27Z</time></trkpt><trkpt lat="43.312067743362995" lon="12.906959857975083"><ele>517.0</ele><time>2026-04-29T14:11:30Z</time></trkpt><trkpt lat="43.312145800911075" lon="12.906999762863157"><ele>517.0</ele><time>2026-04-29T14:11:33Z</time></trkpt><trkpt lat="43.3122250900882" lon="12.907024023762688"><ele>517.0</ele><time>2026-04-29T14:11:35Z</time></trkpt><trkpt lat="43.31230331662212" lon="12.907052787217546"><ele>519.4285714285714</ele><time>2026-04-29T14:11:38Z</time></trkpt><trkpt lat="43.31237354771507" lon="12.90708536926899"><ele>521.8571428571429</ele><time>2026-04-29T14:11:43Z</time></trkpt><trkpt lat="43.31243596488719" lon="12.907129083243102"><ele>524.2857142857143</ele><time>2026-04-29T14:11:56Z</time></trkpt><trkpt lat="43.312501591501295" lon="12.907144146704024"><ele>526.7142857142858</ele><time>2026-04-29T14:12:00Z</time></trkpt><trkpt lat="43.31257814202924" lon="12.907168833175977"><ele>529.1428571428571</ele><time>2026-04-29T14:12:04Z</time></trkpt><trkpt lat="43.31264112784438" lon="12.907192877821874"><ele>531.5714285714287</ele><time>2026-04-29T14:12:09Z</time></trkpt><trkpt lat="43.312705970649226" lon="12.90720740787187"><ele>534.0</ele><time>2026-04-29T14:12:14Z</time></trkpt><trkpt lat="43.31277002995736" lon="12.907221546151174"><ele>534.0000000000001</ele><time>2026-04-29T14:12:19Z</time></trkpt><trkpt lat="43.31284704330653" lon="12.907232095289823"><ele>534.0</ele><time>2026-04-29T14:12:24Z</time></trkpt><trkpt lat="43.312921988284714" lon="12.907232165689505"><ele>534.0</ele><time>2026-04-29T14:12:28.999Z</time></trkpt><trkpt lat="43.312990545988974" lon="12.907240669398034"><ele>534.0</ele><time>2026-04-29T14:12:33.999Z</time></trkpt><trkpt lat="43.31305625615025" lon="12.907245149784627"><ele>534.0</ele><time>2026-04-29T14:12:37.999Z</time></trkpt><trkpt lat="43.31313607182272" lon="12.907260304135656"><ele>534.0000000000001</ele><time>2026-04-29T14:12:41.999Z</time></trkpt><trkpt lat="43.313208842211445" lon="12.907279245500522"><ele>534.0</ele><time>2026-04-29T14:12:44.999Z</time></trkpt><trkpt lat="43.31329778366719" lon="12.90727763153892"><ele>535.2857142857143</ele><time>2026-04-29T14:12:49.999Z</time></trkpt><trkpt lat="43.31336060542301" lon="12.907255387224454"><ele>536.5714285714286</ele><time>2026-04-29T14:12:53.999Z</time></trkpt><trkpt lat="43.31342570544151" lon="12.907251555757806"><ele>537.8571428571429</ele><time>2026-04-29T14:12:56.999Z</time></trkpt><trkpt lat="43.31348024542028" lon="12.90711739217051"><ele>539.1428571428571</ele><time>2026-04-29T14:12:58.999Z</time></trkpt><trkpt lat="43.31354102236278" lon="12.907151902866458"><ele>540.4285714285714</ele><time>2026-04-29T14:13:02.999Z</time></trkpt><trkpt lat="43.31360490781353" lon="12.907119192991589"><ele>541.7142857142858</ele><time>2026-04-29T14:13:05.999Z</time></trkpt><trkpt lat="43.3136560772901" lon="12.907062023506485"><ele>543.0</ele><time>2026-04-29T14:13:07.999Z</time></trkpt><trkpt lat="43.31369286877835" lon="12.906957802932364"><ele>543.0</ele><time>2026-04-29T14:13:09.999Z</time></trkpt><trkpt lat="43.31371242523436" lon="12.906825090207631"><ele>543.0</ele><time>2026-04-29T14:13:11.999Z</time></trkpt><trkpt lat="43.31372537144069" lon="12.90667102660715"><ele>543.0</ele><time>2026-04-29T14:13:13.999Z</time></trkpt><trkpt lat="43.313736443606324" lon="12.90658488621342"><ele>543.0</ele><time>2026-04-29T14:13:14.999Z</time></trkpt><trkpt lat="43.31375094708976" lon="12.906495622441762"><ele>543.0</ele><time>2026-04-29T14:13:15.999Z</time></trkpt><trkpt lat="43.313760726925665" lon="12.90639076424868"><ele>543.0</ele><time>2026-04-29T14:13:16.999Z</time></trkpt><trkpt lat="43.31376937764678" lon="12.906288045608653"><ele>544.3333333333334</ele><time>2026-04-29T14:13:17.999Z</time></trkpt><trkpt lat="43.31377758753796" lon="12.906188338056195"><ele>545.6666666666666</ele><time>2026-04-29T14:13:18.999Z</time></trkpt><trkpt lat="43.3137891317827" lon="12.9060898994877"><ele>547.0</ele><time>2026-04-29T14:13:19.999Z</time></trkpt><trkpt lat="43.31379613989344" lon="12.905988803547636"><ele>548.3333333333333</ele><time>2026-04-29T14:13:20.999Z</time></trkpt><trkpt lat="43.31380801784289" lon="12.905885667326608"><ele>549.6666666666666</ele><time>2026-04-29T14:13:22Z</time></trkpt><trkpt lat="43.313818888900755" lon="12.905782210158389"><ele>551.0</ele><time>2026-04-29T14:13:23Z</time></trkpt><trkpt lat="43.31382775071863" lon="12.905671966099636"><ele>551.0</ele><time>2026-04-29T14:13:24Z</time></trkpt><trkpt lat="43.313836501125664" lon="12.905564395625264"><ele>551.0</ele><time>2026-04-29T14:13:25Z</time></trkpt><trkpt lat="43.31383940767613" lon="12.905459095353308"><ele>551.0</ele><time>2026-04-29T14:13:26Z</time></trkpt><trkpt lat="43.313837252927264" lon="12.905364496575858"><ele>551.0</ele><time>2026-04-29T14:13:27Z</time></trkpt><trkpt lat="43.31384836549044" lon="12.905276730951284"><ele>551.0</ele><time>2026-04-29T14:13:28Z</time></trkpt><trkpt lat="43.3138456322313" lon="12.905119112841176"><ele>551.0</ele><time>2026-04-29T14:13:30Z</time></trkpt><trkpt lat="43.31384545043714" lon="12.904977013121915"><ele>547.6666666666666</ele><time>2026-04-29T14:13:32Z</time></trkpt><trkpt lat="43.31390901595502" lon="12.904898748310208"><ele>544.3333333333333</ele><time>2026-04-29T14:13:35Z</time></trkpt><trkpt lat="43.31397017172993" lon="12.904872632147319"><ele>541.0</ele><time>2026-04-29T14:13:38Z</time></trkpt><trkpt lat="43.31405391915196" lon="12.904908687239807"><ele>537.6666666666666</ele><time>2026-04-29T14:13:41Z</time></trkpt><trkpt lat="43.314121995668664" lon="12.904945593146723"><ele>534.3333333333334</ele><time>2026-04-29T14:13:47Z</time></trkpt><trkpt lat="43.31424795218152" lon="12.90487631402795"><ele>531.0</ele><time>2026-04-29T14:16:49.999Z</time></trkpt><trkpt lat="43.31431576232343" lon="12.904935692038718"><ele>531.0</ele><time>2026-04-29T14:22:20Z</time></trkpt><trkpt lat="43.31437807716711" lon="12.904963974510796"><ele>531.0</ele><time>2026-04-29T14:22:24Z</time></trkpt><trkpt lat="43.31429160691932" lon="12.90520177056256"><ele>531.0</ele><time>2026-04-29T14:22:26Z</time></trkpt><trkpt lat="43.31435612379262" lon="12.905271785623327"><ele>531.0</ele><time>2026-04-29T14:22:29Z</time></trkpt><trkpt lat="43.31441776473483" lon="12.905336202196423"><ele>531.0</ele><time>2026-04-29T14:22:32Z</time></trkpt><trkpt lat="43.31448742889357" lon="12.90540078031632"><ele>531.3333333333334</ele><time>2026-04-29T14:22:36Z</time></trkpt><trkpt lat="43.31455545891875" lon="12.905451051835234"><ele>531.6666666666666</ele><time>2026-04-29T14:22:40Z</time></trkpt><trkpt lat="43.314608011677976" lon="12.905523039995348"><ele>532.0</ele><time>2026-04-29T14:22:54.999Z</time></trkpt><trkpt lat="43.31466570041466" lon="12.905575502929954"><ele>532.3333333333333</ele><time>2026-04-29T14:22:56.999Z</time></trkpt><trkpt lat="43.31474097662447" lon="12.905621188899374"><ele>532.6666666666666</ele><time>2026-04-29T14:22:58.999Z</time></trkpt><trkpt lat="43.31482930382688" lon="12.90569043096057"><ele>533.0</ele><time>2026-04-29T14:23:00.999Z</time></trkpt><trkpt lat="43.31493290681456" lon="12.905771547472108"><ele>531.0</ele><time>2026-04-29T14:23:02.999Z</time></trkpt><trkpt lat="43.314992271831834" lon="12.905814917126516"><ele>529.0</ele><time>2026-04-29T14:23:03.999Z</time></trkpt><trkpt lat="43.31505476253668" lon="12.905860458500126"><ele>527.0</ele><time>2026-04-29T14:23:04.999Z</time></trkpt><trkpt lat="43.31512225130023" lon="12.905911701950265"><ele>525.0</ele><time>2026-04-29T14:23:05.999Z</time></trkpt><trkpt lat="43.31519185882421" lon="12.905969094539408"><ele>523.0</ele><time>2026-04-29T14:23:06.999Z</time></trkpt><trkpt lat="43.31527298744479" lon="12.906031930894006"><ele>521.0</ele><time>2026-04-29T14:23:07.999Z</time></trkpt><trkpt lat="43.31535943635514" lon="12.906095956371873"><ele>519.4</ele><time>2026-04-29T14:23:08.999Z</time></trkpt><trkpt lat="43.31544500481528" lon="12.906162228727068"><ele>517.8</ele><time>2026-04-29T14:23:09.999Z</time></trkpt><trkpt lat="43.31552828256982" lon="12.906230925662664"><ele>516.1999999999999</ele><time>2026-04-29T14:23:10.999Z</time></trkpt><trkpt lat="43.31560986596525" lon="12.906297644585482"><ele>514.6</ele><time>2026-04-29T14:23:11.999Z</time></trkpt><trkpt lat="43.31571257477408" lon="12.906376804194027"><ele>513.0</ele><time>2026-04-29T14:23:12.999Z</time></trkpt><trkpt lat="43.315795868593014" lon="12.906457857279218"><ele>510.79999999999995</ele><time>2026-04-29T14:23:13.999Z</time></trkpt><trkpt lat="43.315871911108744" lon="12.906557053362029"><ele>508.59999999999997</ele><time>2026-04-29T14:23:14.999Z</time></trkpt><trkpt lat="43.315940304481984" lon="12.906657639171607"><ele>506.40000000000003</ele><time>2026-04-29T14:23:15.999Z</time></trkpt><trkpt lat="43.31600626557364" lon="12.906752521093955"><ele>504.20000000000005</ele><time>2026-04-29T14:23:16.999Z</time></trkpt><trkpt lat="43.316068428506156" lon="12.906849783188449"><ele>502.0</ele><time>2026-04-29T14:23:17.999Z</time></trkpt><trkpt lat="43.31612671747094" lon="12.906953243387601"><ele>498.8</ele><time>2026-04-29T14:23:18.999Z</time></trkpt><trkpt lat="43.316172187191086" lon="12.907060006395982"><ele>495.6</ele><time>2026-04-29T14:23:19.999Z</time></trkpt><trkpt lat="43.31622005657951" lon="12.90718142123339"><ele>492.40000000000003</ele><time>2026-04-29T14:23:20.999Z</time></trkpt><trkpt lat="43.31626831203113" lon="12.90729387795812"><ele>489.20000000000005</ele><time>2026-04-29T14:23:21.999Z</time></trkpt><trkpt lat="43.316314516785226" lon="12.907404098782253"><ele>486.0</ele><time>2026-04-29T14:23:22.999Z</time></trkpt><trkpt lat="43.31636718419926" lon="12.907498571167602"><ele>487.6666666666667</ele><time>2026-04-29T14:23:23.999Z</time></trkpt><trkpt lat="43.31642934162394" lon="12.907575719922276"><ele>489.33333333333337</ele><time>2026-04-29T14:23:24.999Z</time></trkpt><trkpt lat="43.31648571656853" lon="12.907643966264441"><ele>491.0</ele><time>2026-04-29T14:23:25.999Z</time></trkpt><trkpt lat="43.31655866734144" lon="12.907717294135951"><ele>492.6666666666667</ele><time>2026-04-29T14:23:26.999Z</time></trkpt><trkpt lat="43.31663648668859" lon="12.907770220355253"><ele>494.33333333333337</ele><time>2026-04-29T14:23:27.999Z</time></trkpt><trkpt lat="43.316721818071315" lon="12.90780924694743"><ele>496.0</ele><time>2026-04-29T14:23:28.999Z</time></trkpt><trkpt lat="43.316812139340335" lon="12.907818551719988"><ele>491.8</ele><time>2026-04-29T14:23:29.999Z</time></trkpt><trkpt lat="43.31692265177305" lon="12.907803368539627"><ele>487.6</ele><time>2026-04-29T14:23:30.999Z</time></trkpt><trkpt lat="43.31700896334319" lon="12.907780878641038"><ele>483.4</ele><time>2026-04-29T14:23:31.999Z</time></trkpt><trkpt lat="43.31708326505384" lon="12.907759390513856"><ele>479.2</ele><time>2026-04-29T14:23:32.999Z</time></trkpt><trkpt lat="43.317182510726695" lon="12.907745242972933"><ele>475.0</ele><time>2026-04-29T14:23:33.999Z</time></trkpt><trkpt lat="43.3172716674596" lon="12.907742123825992"><ele>475.00000000000006</ele><time>2026-04-29T14:23:34.999Z</time></trkpt><trkpt lat="43.31735737048028" lon="12.907746086809835"><ele>475.0</ele><time>2026-04-29T14:23:35.999Z</time></trkpt><trkpt lat="43.31744142798688" lon="12.907789207449605"><ele>475.0</ele><time>2026-04-29T14:23:36.999Z</time></trkpt><trkpt lat="43.31748583077749" lon="12.907873476552966"><ele>475.0</ele><time>2026-04-29T14:23:37.999Z</time></trkpt><trkpt lat="43.317550150681164" lon="12.90794895969702"><ele>475.00000000000006</ele><time>2026-04-29T14:23:38.999Z</time></trkpt><trkpt lat="43.317594960745716" lon="12.908052874007048"><ele>475.0</ele><time>2026-04-29T14:23:39.999Z</time></trkpt><trkpt lat="43.31763254298954" lon="12.90817748903727"><ele>475.0</ele><time>2026-04-29T14:23:40.999Z</time></trkpt><trkpt lat="43.31767359822841" lon="12.90828157475241"><ele>475.0</ele><time>2026-04-29T14:23:41.999Z</time></trkpt><trkpt lat="43.31773680852818" lon="12.908413558504934"><ele>475.0</ele><time>2026-04-29T14:23:42.999Z</time></trkpt><trkpt lat="43.317793359138825" lon="12.908540118484082"><ele>475.0</ele><time>2026-04-29T14:23:43.999Z</time></trkpt><trkpt lat="43.317852539781896" lon="12.90866681548052"><ele>475.0</ele><time>2026-04-29T14:23:44.999Z</time></trkpt><trkpt lat="43.31791016538298" lon="12.90880001202919"><ele>474.25</ele><time>2026-04-29T14:23:45.999Z</time></trkpt><trkpt lat="43.31796936487045" lon="12.908934406229477"><ele>473.5</ele><time>2026-04-29T14:23:46.999Z</time></trkpt><trkpt lat="43.31803303796076" lon="12.909070003424429"><ele>472.75</ele><time>2026-04-29T14:23:47.999Z</time></trkpt><trkpt lat="43.31809510698982" lon="12.909203461336407"><ele>472.0</ele><time>2026-04-29T14:23:48.999Z</time></trkpt><trkpt lat="43.31816331885612" lon="12.90933165399116"><ele>470.40000000000003</ele><time>2026-04-29T14:23:49.999Z</time></trkpt><trkpt lat="43.318245058215545" lon="12.909450497396431"><ele>468.80000000000007</ele><time>2026-04-29T14:23:51Z</time></trkpt><trkpt lat="43.318308090954226" lon="12.909576762412367"><ele>467.2</ele><time>2026-04-29T14:23:52Z</time></trkpt><trkpt lat="43.31838460072702" lon="12.909676273593435"><ele>465.6</ele><time>2026-04-29T14:23:53Z</time></trkpt><trkpt lat="43.318466051828366" lon="12.909744156346205"><ele>464.0</ele><time>2026-04-29T14:23:54Z</time></trkpt><trkpt lat="43.318529388330255" lon="12.909823567627889"><ele>464.0</ele><time>2026-04-29T14:23:55Z</time></trkpt><trkpt lat="43.31859060504472" lon="12.909886832445912"><ele>464.0</ele><time>2026-04-29T14:23:56Z</time></trkpt><trkpt lat="43.31865038353434" lon="12.909932424044555"><ele>464.0</ele><time>2026-04-29T14:23:57Z</time></trkpt><trkpt lat="43.31876069726608" lon="12.909986018578955"><ele>464.0</ele><time>2026-04-29T14:23:59Z</time></trkpt><trkpt lat="43.31886151064531" lon="12.90996542861132"><ele>464.0</ele><time>2026-04-29T14:24:01Z</time></trkpt><trkpt lat="43.3189329347649" lon="12.909841757736283"><ele>463.99999999999994</ele><time>2026-04-29T14:24:03Z</time></trkpt><trkpt lat="43.3189596814716" lon="12.909754067486201"><ele>464.0</ele><time>2026-04-29T14:24:04Z</time></trkpt><trkpt lat="43.318988877583614" lon="12.90965876818542"><ele>464.0</ele><time>2026-04-29T14:24:05Z</time></trkpt><trkpt lat="43.31902532910701" lon="12.909555860641529"><ele>464.0</ele><time>2026-04-29T14:24:06Z</time></trkpt><trkpt lat="43.319064131050915" lon="12.909444850245702"><ele>463.99999999999994</ele><time>2026-04-29T14:24:07Z</time></trkpt><trkpt lat="43.31910646738493" lon="12.909323573177199"><ele>464.0</ele><time>2026-04-29T14:24:08Z</time></trkpt><trkpt lat="43.31914806802779" lon="12.909194097226266"><ele>463.75</ele><time>2026-04-29T14:24:09Z</time></trkpt><trkpt lat="43.31919394961723" lon="12.90905088726381"><ele>463.5</ele><time>2026-04-29T14:24:10Z</time></trkpt><trkpt lat="43.31924702854449" lon="12.908904561474392"><ele>463.25</ele><time>2026-04-29T14:24:11Z</time></trkpt><trkpt lat="43.31930235814767" lon="12.90874974569628"><ele>463.0</ele><time>2026-04-29T14:24:12Z</time></trkpt><trkpt lat="43.31936173317773" lon="12.908590184130496"><ele>463.0</ele><time>2026-04-29T14:24:13Z</time></trkpt><trkpt lat="43.31942883685387" lon="12.908429047166267"><ele>463.0</ele><time>2026-04-29T14:24:14Z</time></trkpt><trkpt lat="43.319496992779904" lon="12.90826549200291"><ele>463.0</ele><time>2026-04-29T14:24:15Z</time></trkpt><trkpt lat="43.319569546457906" lon="12.908100297401724"><ele>463.0</ele><time>2026-04-29T14:24:16Z</time></trkpt><trkpt lat="43.319644004045955" lon="12.907934814151346"><ele>464.0</ele><time>2026-04-29T14:24:17Z</time></trkpt><trkpt lat="43.31972235472345" lon="12.907766934851018"><ele>465.0</ele><time>2026-04-29T14:24:18Z</time></trkpt><trkpt lat="43.31979660288861" lon="12.907589737286063"><ele>466.0</ele><time>2026-04-29T14:24:19Z</time></trkpt><trkpt lat="43.31987615282276" lon="12.907414725316706"><ele>467.0</ele><time>2026-04-29T14:24:20Z</time></trkpt><trkpt lat="43.319960906211456" lon="12.907240776817234"><ele>459.0</ele><time>2026-04-29T14:24:21Z</time></trkpt><trkpt lat="43.32006590159329" lon="12.907089226065624"><ele>451.0</ele><time>2026-04-29T14:24:22Z</time></trkpt><trkpt lat="43.320151010904596" lon="12.90690920041601"><ele>443.0</ele><time>2026-04-29T14:24:23Z</time></trkpt><trkpt lat="43.32025036689475" lon="12.906754727860596"><ele>445.25</ele><time>2026-04-29T14:24:24Z</time></trkpt><trkpt lat="43.32034783342772" lon="12.906600466399942"><ele>447.5</ele><time>2026-04-29T14:24:25Z</time></trkpt><trkpt lat="43.3204329745821" lon="12.906443130574932"><ele>449.75</ele><time>2026-04-29T14:24:26Z</time></trkpt><trkpt lat="43.320508544692" lon="12.90628018795912"><ele>452.0</ele><time>2026-04-29T14:24:27Z</time></trkpt><trkpt lat="43.320576519376246" lon="12.906115709303979"><ele>445.75</ele><time>2026-04-29T14:24:28Z</time></trkpt><trkpt lat="43.32064392489741" lon="12.905951011959154"><ele>439.5</ele><time>2026-04-29T14:24:29Z</time></trkpt><trkpt lat="43.32071770617106" lon="12.90580287591145"><ele>433.25</ele><time>2026-04-29T14:24:30Z</time></trkpt><trkpt lat="43.320807085459265" lon="12.905685378464042"><ele>427.0</ele><time>2026-04-29T14:24:31Z</time></trkpt><trkpt lat="43.32091571400082" lon="12.905599833114216"><ele>427.0</ele><time>2026-04-29T14:24:32Z</time></trkpt><trkpt lat="43.32103793608504" lon="12.905542065431764"><ele>427.0</ele><time>2026-04-29T14:24:33Z</time></trkpt><trkpt lat="43.32116596120149" lon="12.905506161520792"><ele>427.0</ele><time>2026-04-29T14:24:34Z</time></trkpt><trkpt lat="43.321291405826976" lon="12.905459145447487"><ele>427.0</ele><time>2026-04-29T14:24:35Z</time></trkpt><trkpt lat="43.32141068999645" lon="12.905381186391853"><ele>427.0</ele><time>2026-04-29T14:24:36Z</time></trkpt><trkpt lat="43.32152542714501" lon="12.90529175710367"><ele>427.0</ele><time>2026-04-29T14:24:37Z</time></trkpt><trkpt lat="43.32164033352991" lon="12.90519404789825"><ele>427.0</ele><time>2026-04-29T14:24:38Z</time></trkpt><trkpt lat="43.32175808085558" lon="12.905092206224278"><ele>427.0</ele><time>2026-04-29T14:24:39Z</time></trkpt><trkpt lat="43.3218788883686" lon="12.90499217464418"><ele>427.0</ele><time>2026-04-29T14:24:40Z</time></trkpt><trkpt lat="43.322002503837204" lon="12.90489443916871"><ele>427.0</ele><time>2026-04-29T14:24:41Z</time></trkpt><trkpt lat="43.32213054447247" lon="12.904806957946068"><ele>427.0</ele><time>2026-04-29T14:24:42Z</time></trkpt><trkpt lat="43.322265355485165" lon="12.904733647343692"><ele>427.0</ele><time>2026-04-29T14:24:43Z</time></trkpt><trkpt lat="43.322402937916266" lon="12.904668124318697"><ele>422.0</ele><time>2026-04-29T14:24:44Z</time></trkpt><trkpt lat="43.32254299648881" lon="12.904609930159852"><ele>417.0</ele><time>2026-04-29T14:24:45Z</time></trkpt><trkpt lat="43.32268732136296" lon="12.904559400193405"><ele>412.0</ele><time>2026-04-29T14:24:46Z</time></trkpt><trkpt lat="43.322835256021826" lon="12.904509240231683"><ele>407.0</ele><time>2026-04-29T14:24:47Z</time></trkpt><trkpt lat="43.322983421382645" lon="12.904459876683621"><ele>403.3333333333333</ele><time>2026-04-29T14:24:48Z</time></trkpt><trkpt lat="43.323132731396015" lon="12.904412059319135"><ele>399.66666666666663</ele><time>2026-04-29T14:24:49Z</time></trkpt><trkpt lat="43.323283623099435" lon="12.904364953082977"><ele>396.0</ele><time>2026-04-29T14:24:50Z</time></trkpt><trkpt lat="43.32343288127265" lon="12.90432156899195"><ele>396.0</ele><time>2026-04-29T14:24:51Z</time></trkpt><trkpt lat="43.32357742308659" lon="12.904280368749921"><ele>396.0</ele><time>2026-04-29T14:24:52Z</time></trkpt><trkpt lat="43.32371812703964" lon="12.904248507849323"><ele>396.0</ele><time>2026-04-29T14:24:52.999Z</time></trkpt><trkpt lat="43.32386039379816" lon="12.90423364134834"><ele>396.0</ele><time>2026-04-29T14:24:53.999Z</time></trkpt><trkpt lat="43.324002184754896" lon="12.90423481061529"><ele>394.75</ele><time>2026-04-29T14:24:54.999Z</time></trkpt><trkpt lat="43.32413863278786" lon="12.904249234461796"><ele>393.5</ele><time>2026-04-29T14:24:55.999Z</time></trkpt><trkpt lat="43.32427500183841" lon="12.904274873720686"><ele>392.25</ele><time>2026-04-29T14:24:56.999Z</time></trkpt><trkpt lat="43.324410473444686" lon="12.904317396165958"><ele>391.0</ele><time>2026-04-29T14:24:57.999Z</time></trkpt><trkpt lat="43.32454369745237" lon="12.904376304242865"><ele>391.0</ele><time>2026-04-29T14:24:58.999Z</time></trkpt><trkpt lat="43.324670902757575" lon="12.904450545246196"><ele>391.0</ele><time>2026-04-29T14:24:59.999Z</time></trkpt><trkpt lat="43.32479110946731" lon="12.904539621101463"><ele>391.0</ele><time>2026-04-29T14:25:00.999Z</time></trkpt><trkpt lat="43.324908545894644" lon="12.904642616035739"><ele>391.0</ele><time>2026-04-29T14:25:01.999Z</time></trkpt><trkpt lat="43.32502343661989" lon="12.904750032583511"><ele>391.5</ele><time>2026-04-29T14:25:02.999Z</time></trkpt><trkpt lat="43.32512752740847" lon="12.904859732163908"><ele>392.0</ele><time>2026-04-29T14:25:03.999Z</time></trkpt><trkpt lat="43.325236113580566" lon="12.904988331896499"><ele>392.5</ele><time>2026-04-29T14:25:04.999Z</time></trkpt><trkpt lat="43.32535045801615" lon="12.905115612375576"><ele>393.0</ele><time>2026-04-29T14:25:05.999Z</time></trkpt><trkpt lat="43.325467335255865" lon="12.905241155519949"><ele>390.0</ele><time>2026-04-29T14:25:06.999Z</time></trkpt><trkpt lat="43.32557750505543" lon="12.905364166948543"><ele>387.0</ele><time>2026-04-29T14:25:07.999Z</time></trkpt><trkpt lat="43.32569101714883" lon="12.905491158228747"><ele>384.0</ele><time>2026-04-29T14:25:08.999Z</time></trkpt><trkpt lat="43.325804759227346" lon="12.905615932732912"><ele>381.0</ele><time>2026-04-29T14:25:09.999Z</time></trkpt><trkpt lat="43.3259064337701" lon="12.905760038754261"><ele>381.0</ele><time>2026-04-29T14:25:10.999Z</time></trkpt><trkpt lat="43.32601789862403" lon="12.905884969641278"><ele>381.0</ele><time>2026-04-29T14:25:11.999Z</time></trkpt><trkpt lat="43.32612494660849" lon="12.90600273764089"><ele>381.0</ele><time>2026-04-29T14:25:12.999Z</time></trkpt><trkpt lat="43.326243668824496" lon="12.906093149203793"><ele>381.0</ele><time>2026-04-29T14:25:13.999Z</time></trkpt><trkpt lat="43.32635319341951" lon="12.906186713896354"><ele>378.25</ele><time>2026-04-29T14:25:14.999Z</time></trkpt><trkpt lat="43.32646480476439" lon="12.906259935461552"><ele>375.5</ele><time>2026-04-29T14:25:15.999Z</time></trkpt><trkpt lat="43.326577898475925" lon="12.90630499729158"><ele>372.75</ele><time>2026-04-29T14:25:16.999Z</time></trkpt><trkpt lat="43.32668929782422" lon="12.90633226955133"><ele>370.0</ele><time>2026-04-29T14:25:17.999Z</time></trkpt><trkpt lat="43.32679923670633" lon="12.906339014680343"><ele>370.0</ele><time>2026-04-29T14:25:18.999Z</time></trkpt><trkpt lat="43.32690923577329" lon="12.906333038377053"><ele>370.0</ele><time>2026-04-29T14:25:19.999Z</time></trkpt><trkpt lat="43.32701753778207" lon="12.906322751166869"><ele>370.0</ele><time>2026-04-29T14:25:20.999Z</time></trkpt><trkpt lat="43.32712189316662" lon="12.906302660033708"><ele>370.0</ele><time>2026-04-29T14:25:21.999Z</time></trkpt><trkpt lat="43.327231504188376" lon="12.906264427424503"><ele>370.0</ele><time>2026-04-29T14:25:22.999Z</time></trkpt><trkpt lat="43.327335266494515" lon="12.906211081306411"><ele>370.25</ele><time>2026-04-29T14:25:23.999Z</time></trkpt><trkpt lat="43.327440316111705" lon="12.906134066960671"><ele>370.5</ele><time>2026-04-29T14:25:24.999Z</time></trkpt><trkpt lat="43.32754228316141" lon="12.906051168085346"><ele>370.75</ele><time>2026-04-29T14:25:25.999Z</time></trkpt><trkpt lat="43.327647543837706" lon="12.905972263756862"><ele>371.0</ele><time>2026-04-29T14:25:26.999Z</time></trkpt><trkpt lat="43.327750318368366" lon="12.9059008664959"><ele>371.0</ele><time>2026-04-29T14:25:27.999Z</time></trkpt><trkpt lat="43.32785270913395" lon="12.905829988844856"><ele>371.0</ele><time>2026-04-29T14:25:28.999Z</time></trkpt><trkpt lat="43.32795690812809" lon="12.905758356547032"><ele>371.0</ele><time>2026-04-29T14:25:29.999Z</time></trkpt><trkpt lat="43.32806124830276" lon="12.905689851850406"><ele>371.0</ele><time>2026-04-29T14:25:30.999Z</time></trkpt><trkpt lat="43.32816277931493" lon="12.905618545246549"><ele>368.5</ele><time>2026-04-29T14:25:31.999Z</time></trkpt><trkpt lat="43.32826525130425" lon="12.905546854655038"><ele>366.0</ele><time>2026-04-29T14:25:32.999Z</time></trkpt><trkpt lat="43.32837049933294" lon="12.905475521612145"><ele>363.5</ele><time>2026-04-29T14:25:33.999Z</time></trkpt><trkpt lat="43.328473230863956" lon="12.905405337762307"><ele>361.0</ele><time>2026-04-29T14:25:34.999Z</time></trkpt><trkpt lat="43.32857693819018" lon="12.905335443681139"><ele>361.0</ele><time>2026-04-29T14:25:35.999Z</time></trkpt><trkpt lat="43.328679601189734" lon="12.905267813138341"><ele>361.0</ele><time>2026-04-29T14:25:36.999Z</time></trkpt><trkpt lat="43.32878088293774" lon="12.905200254800857"><ele>361.0</ele><time>2026-04-29T14:25:37.999Z</time></trkpt><trkpt lat="43.32887833546044" lon="12.905133308836396"><ele>361.0</ele><time>2026-04-29T14:25:38.999Z</time></trkpt><trkpt lat="43.328977414634" lon="12.905062855834391"><ele>361.0</ele><time>2026-04-29T14:25:39.999Z</time></trkpt><trkpt lat="43.32907355371453" lon="12.904993854594283"><ele>360.8</ele><time>2026-04-29T14:25:40.999Z</time></trkpt><trkpt lat="43.32917261485039" lon="12.904929419717647"><ele>360.6</ele><time>2026-04-29T14:25:41.999Z</time></trkpt><trkpt lat="43.329271780857354" lon="12.904867993647692"><ele>360.4</ele><time>2026-04-29T14:25:42.999Z</time></trkpt><trkpt lat="43.32937120213135" lon="12.904809229866773"><ele>360.2</ele><time>2026-04-29T14:25:43.999Z</time></trkpt><trkpt lat="43.32946797852583" lon="12.904750262172424"><ele>360.0</ele><time>2026-04-29T14:25:44.999Z</time></trkpt><trkpt lat="43.32956528629758" lon="12.90470207344237"><ele>360.0</ele><time>2026-04-29T14:25:45.999Z</time></trkpt><trkpt lat="43.32966753811638" lon="12.904677545197082"><ele>360.0</ele><time>2026-04-29T14:25:46.999Z</time></trkpt><trkpt lat="43.32977271858464" lon="12.904665714656531"><ele>360.0</ele><time>2026-04-29T14:25:47.999Z</time></trkpt><trkpt lat="43.32986830506705" lon="12.90464975921144"><ele>360.0</ele><time>2026-04-29T14:25:48.999Z</time></trkpt><trkpt lat="43.329961961511515" lon="12.904632268614584"><ele>360.0</ele><time>2026-04-29T14:25:49.999Z</time></trkpt><trkpt lat="43.330043969401785" lon="12.90460944052066"><ele>359.7142857142857</ele><time>2026-04-29T14:25:50.999Z</time></trkpt><trkpt lat="43.330108783553094" lon="12.90456952222502"><ele>359.42857142857144</ele><time>2026-04-29T14:25:51.999Z</time></trkpt><trkpt lat="43.3301477930467" lon="12.904501209312704"><ele>359.14285714285717</ele><time>2026-04-29T14:25:52.999Z</time></trkpt><trkpt lat="43.330170422108395" lon="12.904413129015188"><ele>358.8571428571429</ele><time>2026-04-29T14:25:53.999Z</time></trkpt><trkpt lat="43.330176801237926" lon="12.904316538211951"><ele>358.57142857142856</ele><time>2026-04-29T14:25:54.999Z</time></trkpt><trkpt lat="43.330182637379586" lon="12.904211153042446"><ele>358.28571428571433</ele><time>2026-04-29T14:25:55.999Z</time></trkpt><trkpt lat="43.330197841248705" lon="12.904106907055214"><ele>358.0</ele><time>2026-04-29T14:25:57Z</time></trkpt><trkpt lat="43.33021938700568" lon="12.9039984535883"><ele>358.0</ele><time>2026-04-29T14:25:58Z</time></trkpt><trkpt lat="43.33026830096533" lon="12.903898232536001"><ele>358.0</ele><time>2026-04-29T14:25:59Z</time></trkpt><trkpt lat="43.33031647499345" lon="12.903799308910699"><ele>358.0</ele><time>2026-04-29T14:26:00Z</time></trkpt><trkpt lat="43.330372038489756" lon="12.903696384731454"><ele>358.0</ele><time>2026-04-29T14:26:01Z</time></trkpt><trkpt lat="43.3304202545511" lon="12.903593990880639"><ele>358.0</ele><time>2026-04-29T14:26:02Z</time></trkpt><trkpt lat="43.33048567113956" lon="12.903498196962616"><ele>357.0</ele><time>2026-04-29T14:26:03Z</time></trkpt><trkpt lat="43.33055216776667" lon="12.903403720031942"><ele>356.0</ele><time>2026-04-29T14:26:04Z</time></trkpt><trkpt lat="43.33062517934126" lon="12.903313745920519"><ele>355.0</ele><time>2026-04-29T14:26:05Z</time></trkpt><trkpt lat="43.330707353934194" lon="12.903237680031955"><ele>354.0</ele><time>2026-04-29T14:26:06Z</time></trkpt><trkpt lat="43.33079280476397" lon="12.903166838936546"><ele>353.0</ele><time>2026-04-29T14:26:07Z</time></trkpt><trkpt lat="43.330878201145275" lon="12.903094434967194"><ele>351.4</ele><time>2026-04-29T14:26:08Z</time></trkpt><trkpt lat="43.33096336106178" lon="12.903029135541372"><ele>349.79999999999995</ele><time>2026-04-29T14:26:09Z</time></trkpt><trkpt lat="43.33104615468849" lon="12.902963554547368"><ele>348.2</ele><time>2026-04-29T14:26:10Z</time></trkpt><trkpt lat="43.33112588976496" lon="12.902898243537875"><ele>346.6</ele><time>2026-04-29T14:26:11Z</time></trkpt><trkpt lat="43.33121101822291" lon="12.90285972075079"><ele>345.0</ele><time>2026-04-29T14:26:12Z</time></trkpt><trkpt lat="43.33128619875715" lon="12.90280427759647"><ele>345.0</ele><time>2026-04-29T14:26:13Z</time></trkpt><trkpt lat="43.33135663167568" lon="12.902751196585408"><ele>345.0</ele><time>2026-04-29T14:26:14Z</time></trkpt><trkpt lat="43.33140914327377" lon="12.902686655176964"><ele>345.0</ele><time>2026-04-29T14:26:15Z</time></trkpt><trkpt lat="43.331503143616644" lon="12.902620554806775"><ele>345.0</ele><time>2026-04-29T14:26:17Z</time></trkpt><trkpt lat="43.331597207457776" lon="12.902561780668321"><ele>345.0</ele><time>2026-04-29T14:26:19Z</time></trkpt><trkpt lat="43.33173600910116" lon="12.90264772787491"><ele>343.6666666666667</ele><time>2026-04-29T14:26:22Z</time></trkpt><trkpt lat="43.331794334994235" lon="12.902802685411674"><ele>342.3333333333333</ele><time>2026-04-29T14:26:24Z</time></trkpt><trkpt lat="43.33183236572363" lon="12.902883554670153"><ele>341.0</ele><time>2026-04-29T14:26:25Z</time></trkpt><trkpt lat="43.331871731505665" lon="12.902967306104124"><ele>339.66666666666663</ele><time>2026-04-29T14:26:26Z</time></trkpt><trkpt lat="43.3319115098699" lon="12.903053435501858"><ele>338.3333333333333</ele><time>2026-04-29T14:26:27Z</time></trkpt><trkpt lat="43.33195326544792" lon="12.903141258819488"><ele>337.0</ele><time>2026-04-29T14:26:28Z</time></trkpt><trkpt lat="43.33199607081221" lon="12.903233634852832"><ele>337.0</ele><time>2026-04-29T14:26:29Z</time></trkpt><trkpt lat="43.332039683513706" lon="12.903327482665734"><ele>337.0</ele><time>2026-04-29T14:26:30Z</time></trkpt><trkpt lat="43.33208521842232" lon="12.903422391910304"><ele>337.0</ele><time>2026-04-29T14:26:31Z</time></trkpt><trkpt lat="43.33212857689549" lon="12.903519623732695"><ele>337.0</ele><time>2026-04-29T14:26:32Z</time></trkpt><trkpt lat="43.33217311712193" lon="12.903618888967612"><ele>337.0</ele><time>2026-04-29T14:26:33Z</time></trkpt><trkpt lat="43.332218494360916" lon="12.903719923338526"><ele>337.0</ele><time>2026-04-29T14:26:34Z</time></trkpt><trkpt lat="43.33226393922931" lon="12.903823263183519"><ele>336.6</ele><time>2026-04-29T14:26:35Z</time></trkpt><trkpt lat="43.33230962039423" lon="12.903928893045729"><ele>336.20000000000005</ele><time>2026-04-29T14:26:36Z</time></trkpt><trkpt lat="43.332356005766776" lon="12.904037170918366"><ele>335.8</ele><time>2026-04-29T14:26:37Z</time></trkpt><trkpt lat="43.33240354699199" lon="12.90414741483162"><ele>335.4</ele><time>2026-04-29T14:26:38Z</time></trkpt><trkpt lat="43.33245271151214" lon="12.904258534129289"><ele>335.0</ele><time>2026-04-29T14:26:39Z</time></trkpt><trkpt lat="43.332502275772335" lon="12.904371166215833"><ele>334.4</ele><time>2026-04-29T14:26:40Z</time></trkpt><trkpt lat="43.33255307540826" lon="12.904485644589702"><ele>333.8</ele><time>2026-04-29T14:26:41Z</time></trkpt><trkpt lat="43.33260508027501" lon="12.904600206115687"><ele>333.20000000000005</ele><time>2026-04-29T14:26:42Z</time></trkpt><trkpt lat="43.33265867810063" lon="12.904715247357652"><ele>332.6</ele><time>2026-04-29T14:26:43Z</time></trkpt><trkpt lat="43.33271539291237" lon="12.904833881645517"><ele>332.0</ele><time>2026-04-29T14:26:43.999Z</time></trkpt><trkpt lat="43.33277413776139" lon="12.904956066609888"><ele>332.20000000000005</ele><time>2026-04-29T14:26:44.999Z</time></trkpt><trkpt lat="43.33283386866733" lon="12.905081632253236"><ele>332.4</ele><time>2026-04-29T14:26:45.999Z</time></trkpt><trkpt lat="43.33289379408293" lon="12.905209907152816"><ele>332.6</ele><time>2026-04-29T14:26:46.999Z</time></trkpt><trkpt lat="43.33295477699448" lon="12.905340266701678"><ele>332.79999999999995</ele><time>2026-04-29T14:26:47.999Z</time></trkpt><trkpt lat="43.33301554529337" lon="12.905472857999575"><ele>333.0</ele><time>2026-04-29T14:26:48.999Z</time></trkpt><trkpt lat="43.33307800044222" lon="12.90560610194299"><ele>333.0</ele><time>2026-04-29T14:26:49.999Z</time></trkpt><trkpt lat="43.33313914301228" lon="12.905740288257224"><ele>333.0</ele><time>2026-04-29T14:26:50.999Z</time></trkpt><trkpt lat="43.33319762510783" lon="12.905873205844323"><ele>333.0</ele><time>2026-04-29T14:26:51.999Z</time></trkpt><trkpt lat="43.33325824915784" lon="12.906001125115152"><ele>333.0</ele><time>2026-04-29T14:26:52.999Z</time></trkpt><trkpt lat="43.33331602409604" lon="12.906121632824382"><ele>333.0</ele><time>2026-04-29T14:26:53.999Z</time></trkpt><trkpt lat="43.33336731284955" lon="12.906231881844104"><ele>332.8333333333333</ele><time>2026-04-29T14:26:54.999Z</time></trkpt><trkpt lat="43.333414056244884" lon="12.906333135737698"><ele>332.6666666666667</ele><time>2026-04-29T14:26:55.999Z</time></trkpt><trkpt lat="43.33345721879749" lon="12.906423882292511"><ele>332.5</ele><time>2026-04-29T14:26:56.999Z</time></trkpt><trkpt lat="43.333496107951866" lon="12.90650351017191"><ele>332.33333333333337</ele><time>2026-04-29T14:26:57.999Z</time></trkpt><trkpt lat="43.33353124061784" lon="12.90657683086671"><ele>332.1666666666667</ele><time>2026-04-29T14:26:58.999Z</time></trkpt><trkpt lat="43.33360009954653" lon="12.906716874678617"><ele>332.0</ele><time>2026-04-29T14:27:00.999Z</time></trkpt><trkpt lat="43.33366270207527" lon="12.90685099685389"><ele>331.8</ele><time>2026-04-29T14:27:02.999Z</time></trkpt><trkpt lat="43.333702671096624" lon="12.907015927591155"><ele>331.6</ele><time>2026-04-29T14:27:04.999Z</time></trkpt><trkpt lat="43.333747745468564" lon="12.907164785211128"><ele>331.40000000000003</ele><time>2026-04-29T14:27:06.999Z</time></trkpt><trkpt lat="43.33383735371229" lon="12.90727923037491"><ele>331.20000000000005</ele><time>2026-04-29T14:27:08.999Z</time></trkpt><trkpt lat="43.3338768010253" lon="12.90735061788646"><ele>331.0</ele><time>2026-04-29T14:27:09.999Z</time></trkpt><trkpt lat="43.33391720513454" lon="12.907426846020233"><ele>331.0</ele><time>2026-04-29T14:27:10.999Z</time></trkpt><trkpt lat="43.33395543282331" lon="12.907507594599274"><ele>331.0</ele><time>2026-04-29T14:27:11.999Z</time></trkpt><trkpt lat="43.333998410439065" lon="12.907594670032703"><ele>331.0</ele><time>2026-04-29T14:27:12.999Z</time></trkpt><trkpt lat="43.33403739628" lon="12.907678813355028"><ele>331.0</ele><time>2026-04-29T14:27:13.999Z</time></trkpt><trkpt lat="43.33408500544561" lon="12.907776788855612"><ele>331.0</ele><time>2026-04-29T14:27:14.999Z</time></trkpt><trkpt lat="43.33412329267597" lon="12.907878683176799"><ele>331.0</ele><time>2026-04-29T14:27:15.999Z</time></trkpt><trkpt lat="43.334170077522494" lon="12.90798161717971"><ele>333.0</ele><time>2026-04-29T14:27:16.999Z</time></trkpt><trkpt lat="43.334220348901894" lon="12.908089738074128"><ele>333.0</ele><time>2026-04-29T14:27:17.999Z</time></trkpt><trkpt lat="43.334331163699275" lon="12.908307704861121"><ele>333.0</ele><time>2026-04-29T14:27:19.999Z</time></trkpt></trkseg></trk></gpx>